Observation data for Comanche Springs on 04/09/2020      Previous  Date  Next       Current Mesonet Observations  Soil Data  Daily Summary Page  Observations in Plain Language
KCO3 090500Z 01006KT 19/06 A2992 RMK A01 T01930059  RH  042%=      5-min Rain = 0
KCO3 090501Z 01006KT 19/06 A2992 RMK A01 T01930060  RH  042%=      5-min Rain = 0
KCO3 090502Z 01007KT 19/06 A2992 RMK A01 T01930060  RH  042%=      5-min Rain = 0
KCO3 090503Z 01007KT 19/06 A2992 RMK A01 T01930061  RH  042%=      5-min Rain = 0
KCO3 090504Z 01007KT 19/06 A2992 RMK A01 T01930061  RH  042%=      5-min Rain = 0
KCO3 090505Z 01008KT 19/06 A2992 RMK A01 T01930061  RH  042%=      5-min Rain = 0
KCO3 090506Z 01008KT 19/06 A2992 RMK A01 T01930063  RH  043%=      5-min Rain = 0
KCO3 090507Z 01007KT 19/06 A2992 RMK A01 T01930064  RH  043%=      5-min Rain = 0
KCO3 090508Z 01007KT 19/07 A2992 RMK A01 T01920065  RH  043%=      5-min Rain = 0
KCO3 090509Z 00007KT 19/07 A2992 RMK A01 T01920065  RH  044%=      5-min Rain = 0
KCO3 090510Z 00008KT 19/07 A2992 RMK A01 T01920065  RH  044%=      5-min Rain = 0
KCO3 090511Z 00008KT 19/07 A2992 RMK A01 T01920065  RH  044%=      5-min Rain = 0
KCO3 090512Z 00008KT 19/07 A2992 RMK A01 T01920065  RH  044%=      5-min Rain = 0
KCO3 090513Z 00007KT 19/07 A2992 RMK A01 T01920065  RH  044%=      5-min Rain = 0
KCO3 090514Z 36007KT 19/07 A2992 RMK A01 T01910065  RH  044%=      5-min Rain = 0
KCO3 090515Z 36007KT 19/07 A2992 RMK A01 T01910066  RH  044%=      5-min Rain = 0
KCO3 090516Z 01007KT 19/07 A2992 RMK A01 T01900065  RH  044%=      5-min Rain = 0
KCO3 090517Z 01006KT 19/07 A2992 RMK A01 T01900066  RH  044%=      5-min Rain = 0
KCO3 090518Z 01006KT 19/07 A2992 RMK A01 T01920067  RH  044%=      5-min Rain = 0
KCO3 090519Z 02007KT 19/07 A2992 RMK A01 T01920068  RH  044%=      5-min Rain = 0
KCO3 090520Z 01007KT 19/07 A2992 RMK A01 T01920070  RH  045%=      5-min Rain = 0
KCO3 090521Z 01007KT 19/07 A2992 RMK A01 T01920070  RH  045%=      5-min Rain = 0
KCO3 090522Z 01006KT 19/07 A2992 RMK A01 T01920070  RH  045%=      5-min Rain = 0
KCO3 090523Z 00007KT 19/07 A2992 RMK A01 T01930070  RH  045%=      5-min Rain = 0
KCO3 090524Z 00007KT 19/07 A2992 RMK A01 T01930070  RH  045%=      5-min Rain = 0
KCO3 090525Z 00007KT 19/07 A2992 RMK A01 T01920070  RH  045%=      5-min Rain = 0
KCO3 090526Z 00007KT 19/07 A2992 RMK A01 T01920071  RH  045%=      5-min Rain = 0
KCO3 090527Z 00006KT 19/07 A2992 RMK A01 T01920071  RH  045%=      5-min Rain = 0
KCO3 090528Z 00006KT 19/07 A2992 RMK A01 T01920071  RH  045%=      5-min Rain = 0
KCO3 090529Z 00006KT 19/07 A2992 RMK A01 T01920071  RH  046%=      5-min Rain = 0
KCO3 090530Z 01006KT 19/07 A2992 RMK A01 T01910072  RH  046%=      5-min Rain = 0
KCO3 090531Z 01006KT 19/07 A2992 RMK A01 T01910072  RH  046%=      5-min Rain = 0
KCO3 090532Z 00006KT 19/07 A2992 RMK A01 T01900072  RH  046%=      5-min Rain = 0
KCO3 090533Z 00006KT 19/07 A2992 RMK A01 T01890073  RH  047%=      5-min Rain = 0
KCO3 090534Z 01006KT 19/07 A2992 RMK A01 T01890072  RH  047%=      5-min Rain = 0
KCO3 090535Z 01006KT 19/07 A2992 RMK A01 T01880073  RH  047%=      5-min Rain = 0
KCO3 090536Z 01006KT 19/07 A2992 RMK A01 T01870073  RH  047%=      5-min Rain = 0
KCO3 090537Z 02005KT 19/07 A2992 RMK A01 T01870073  RH  047%=      5-min Rain = 0
KCO3 090538Z 02005KT 19/07 A2992 RMK A01 T01870073  RH  047%=      5-min Rain = 0
KCO3 090539Z 01005KT 19/07 A2992 RMK A01 T01880074  RH  048%=      5-min Rain = 0
KCO3 090540Z 01004KT 19/08 A2992 RMK A01 T01890075  RH  048%=      5-min Rain = 0
KCO3 090541Z 01003KT 19/08 A2992 RMK A01 T01870075  RH  048%=      5-min Rain = 0
KCO3 090542Z 36003KT 18/07 A2992 RMK A01 T01790066  RH  048%=      5-min Rain = 0
KCO3 090543Z 33000KT 17/07 A2993 RMK A01 T01710068  RH  051%=      5-min Rain = 0
KCO3 090544Z 22000KT 17/06 A2993 RMK A01 T01650064  RH  051%=      5-min Rain = 0
KCO3 090545Z 26000KT 16/06 A2993 RMK A01 T01600063  RH  052%=      5-min Rain = 0
KCO3 090546Z 17001KT 16/06 A2993 RMK A01 T01570064  RH  054%=      5-min Rain = 0
KCO3 090547Z 14001KT 15/06 A2993 RMK A01 T01530064  RH  055%=      5-min Rain = 0
KCO3 090548Z 15001KT 15/06 A2993 RMK A01 T01520063  RH  055%=      5-min Rain = 0
KCO3 090549Z 16001KT 15/06 A2993 RMK A01 T01520063  RH  055%=      5-min Rain = 0
KCO3 090550Z 17002KT 15/06 A2993 RMK A01 T01520063  RH  055%=      5-min Rain = 0
KCO3 090551Z 06001KT 15/07 A2994 RMK A01 T01500068  RH  058%=      5-min Rain = 0
KCO3 090552Z 03002KT 15/07 A2994 RMK A01 T01490072  RH  060%=      5-min Rain = 0
KCO3 090553Z 14003KT 15/07 A2994 RMK A01 T01510072  RH  060%=      5-min Rain = 0
KCO3 090554Z 16004KT 15/07 A2994 RMK A01 T01540073  RH  058%=      5-min Rain = 0
KCO3 090555Z 14002KT 15/07 A2994 RMK A01 T01530073  RH  059%=      5-min Rain = 0
KCO3 090556Z 12002KT 15/07 A2994 RMK A01 T01490073  RH  060%=      5-min Rain = 0
KCO3 090557Z 12003KT 15/08 A2994 RMK A01 T01460075  RH  062%=      5-min Rain = 0
KCO3 090558Z 10001KT 15/07 A2994 RMK A01 T01450074  RH  062%=      5-min Rain = 0
KCO3 090559Z 08002KT 15/07 A2994 RMK A01 T01480072  RH  061%=      5-min Rain = 0
KCO3 090600Z 06002KT 15/07 A2994 RMK A01 T01530073  RH  059%=      5-min Rain = 0
KCO3 090601Z 03002KT 16/08 A2994 RMK A01 T01560077  RH  059%=      5-min Rain = 0
KCO3 090602Z 02004KT 16/08 A2994 RMK A01 T01560076  RH  059%=      5-min Rain = 0
KCO3 090603Z 02004KT 16/08 A2994 RMK A01 T01560076  RH  059%=      5-min Rain = 0
KCO3 090604Z 02005KT 16/08 A2994 RMK A01 T01600082  RH  060%=      5-min Rain = 0
KCO3 090605Z 02006KT 17/09 A2994 RMK A01 T01670086  RH  059%=      5-min Rain = 0
KCO3 090606Z 02006KT 17/09 A2994 RMK A01 T01730088  RH  057%=      5-min Rain = 0
KCO3 090607Z 02006KT 18/09 A2994 RMK A01 T01770091  RH  057%=      5-min Rain = 0
KCO3 090608Z 03007KT 18/09 A2994 RMK A01 T01800091  RH  056%=      5-min Rain = 0
KCO3 090609Z 04007KT 18/09 A2994 RMK A01 T01840093  RH  055%=      5-min Rain = 0
KCO3 090610Z 04006KT 19/09 A2994 RMK A01 T01870093  RH  054%=      5-min Rain = 0
KCO3 090611Z 04008KT 19/09 A2994 RMK A01 T01910093  RH  053%=      5-min Rain = 0
KCO3 090612Z 04008KT 19/09 A2994 RMK A01 T01940092  RH  052%=      5-min Rain = 0
KCO3 090613Z 03010G15KT 20/09 A2994 RMK A01 T01960089  RH  050%=      5-min Rain = 0
KCO3 090614Z 03009KT 20/09 A2994 RMK A01 T01990087  RH  048%=      5-min Rain = 0
KCO3 090615Z 03008KT 20/09 A2994 RMK A01 T02020087  RH  048%=      5-min Rain = 0
KCO3 090616Z 03007KT 20/09 A2994 RMK A01 T02030087  RH  047%=      5-min Rain = 0
KCO3 090617Z 03009KT 20/09 A2994 RMK A01 T02030086  RH  047%=      5-min Rain = 0
KCO3 090618Z 03008KT 20/09 A2994 RMK A01 T02040087  RH  047%=      5-min Rain = 0
KCO3 090619Z 03008KT 20/09 A2994 RMK A01 T02040088  RH  047%=      5-min Rain = 0
KCO3 090620Z 03007KT 20/09 A2994 RMK A01 T02040089  RH  048%=      5-min Rain = 0
KCO3 090621Z 02007KT 20/09 A2994 RMK A01 T02040090  RH  048%=      5-min Rain = 0
KCO3 090622Z 02005KT 20/09 A2994 RMK A01 T02030091  RH  048%=      5-min Rain = 0
KCO3 090623Z 02005KT 20/09 A2994 RMK A01 T02020091  RH  049%=      5-min Rain = 0
KCO3 090624Z 02006KT 20/09 A2994 RMK A01 T02010092  RH  049%=      5-min Rain = 0
KCO3 090625Z 02006KT 20/09 A2994 RMK A01 T02000091  RH  050%=      5-min Rain = 0
KCO3 090626Z 01006KT 20/09 A2994 RMK A01 T01990092  RH  050%=      5-min Rain = 0
KCO3 090627Z 01006KT 20/09 A2994 RMK A01 T01980093  RH  051%=      5-min Rain = 0
KCO3 090628Z 02006KT 20/09 A2994 RMK A01 T01970092  RH  051%=      5-min Rain = 0
KCO3 090629Z 02005KT 20/09 A2994 RMK A01 T01960093  RH  051%=      5-min Rain = 0
KCO3 090630Z 02006KT 20/09 A2994 RMK A01 T01950093  RH  052%=      5-min Rain = 0
KCO3 090631Z 03005KT 20/09 A2994 RMK A01 T01950092  RH  051%=      5-min Rain = 0
KCO3 090632Z 03005KT 20/09 A2994 RMK A01 T01950091  RH  051%=      5-min Rain = 0
KCO3 090633Z 02005KT 20/09 A2994 RMK A01 T01950090  RH  051%=      5-min Rain = 0
KCO3 090634Z 03005KT 20/09 A2994 RMK A01 T01950090  RH  051%=      5-min Rain = 0
KCO3 090635Z 03005KT 20/09 A2994 RMK A01 T01950089  RH  050%=      5-min Rain = 0
KCO3 090636Z 03005KT 20/09 A2994 RMK A01 T01960089  RH  050%=      5-min Rain = 0
KCO3 090637Z 03005KT 20/09 A2994 RMK A01 T01960090  RH  050%=      5-min Rain = 0
KCO3 090638Z 03006KT 20/09 A2994 RMK A01 T01960089  RH  050%=      5-min Rain = 0
KCO3 090639Z 03006KT 20/09 A2994 RMK A01 T01960090  RH  050%=      5-min Rain = 0
KCO3 090640Z 03006KT 20/09 A2994 RMK A01 T01960089  RH  050%=      5-min Rain = 0
KCO3 090641Z 02006KT 20/09 A2994 RMK A01 T01970090  RH  050%=      5-min Rain = 0
KCO3 090642Z 03005KT 20/09 A2994 RMK A01 T01970091  RH  050%=      5-min Rain = 0
KCO3 090643Z 03005KT 20/09 A2994 RMK A01 T01960091  RH  051%=      5-min Rain = 0
KCO3 090644Z 03006KT 20/09 A2994 RMK A01 T01950091  RH  051%=      5-min Rain = 0
KCO3 090645Z 02006KT 20/09 A2994 RMK A01 T01950091  RH  051%=      5-min Rain = 0
KCO3 090646Z 03005KT 20/09 A2994 RMK A01 T01950091  RH  051%=      5-min Rain = 0
KCO3 090647Z 03005G10KT 20/09 A2994 RMK A01 T01950090  RH  051%=      5-min Rain = 0
KCO3 090648Z 03005KT 20/09 A2994 RMK A01 T01950089  RH  051%=      5-min Rain = 0
KCO3 090649Z 03005KT 20/09 A2994 RMK A01 T01950089  RH  050%=      5-min Rain = 0
KCO3 090650Z 03005KT 20/09 A2994 RMK A01 T01950089  RH  050%=      5-min Rain = 0
KCO3 090651Z 03005KT 20/09 A2994 RMK A01 T01950089  RH  050%=      5-min Rain = 0
KCO3 090652Z 03005KT 20/09 A2994 RMK A01 T01950088  RH  050%=      5-min Rain = 0
KCO3 090653Z 03004KT 20/09 A2994 RMK A01 T01950088  RH  050%=      5-min Rain = 0
KCO3 090654Z 04004KT 19/09 A2994 RMK A01 T01940087  RH  050%=      5-min Rain = 0
KCO3 090655Z 03004KT 20/09 A2994 RMK A01 T01950086  RH  050%=      5-min Rain = 0
KCO3 090656Z 04004KT 20/09 A2994 RMK A01 T01950087  RH  050%=      5-min Rain = 0
KCO3 090657Z 03005KT 20/09 A2994 RMK A01 T01950087  RH  050%=      5-min Rain = 0
KCO3 090658Z 03004KT 19/09 A2994 RMK A01 T01940086  RH  049%=      5-min Rain = 0
KCO3 090659Z 04005KT 19/09 A2994 RMK A01 T01940086  RH  050%=      5-min Rain = 0
KCO3 090700Z 03005KT 19/09 A2994 RMK A01 T01930085  RH  050%=      5-min Rain = 0
KCO3 090701Z 03006KT 19/08 A2994 RMK A01 T01920084  RH  050%=      5-min Rain = 0
KCO3 090702Z 03006KT 19/08 A2993 RMK A01 T01920084  RH  049%=      5-min Rain = 0
KCO3 090703Z 03006KT 19/08 A2993 RMK A01 T01920083  RH  049%=      5-min Rain = 0
KCO3 090704Z 03006KT 19/08 A2993 RMK A01 T01930082  RH  049%=      5-min Rain = 0
KCO3 090705Z 02004KT 19/08 A2993 RMK A01 T01930083  RH  049%=      5-min Rain = 0
KCO3 090706Z 03005KT 19/08 A2993 RMK A01 T01930082  RH  049%=      5-min Rain = 0
KCO3 090707Z 03004KT 19/08 A2993 RMK A01 T01930082  RH  049%=      5-min Rain = 0
KCO3 090708Z 03005KT 19/08 A2993 RMK A01 T01930082  RH  049%=      5-min Rain = 0
KCO3 090709Z 03004KT 19/08 A2993 RMK A01 T01920081  RH  048%=      5-min Rain = 0
KCO3 090710Z 03004KT 19/08 A2993 RMK A01 T01920081  RH  048%=      5-min Rain = 0
KCO3 090711Z 03006KT 19/08 A2993 RMK A01 T01920081  RH  048%=      5-min Rain = 0
KCO3 090712Z 02005KT 19/08 A2993 RMK A01 T01920080  RH  048%=      5-min Rain = 0
KCO3 090713Z 02005KT 19/08 A2994 RMK A01 T01920080  RH  048%=      5-min Rain = 0
KCO3 090714Z 03005KT 19/08 A2994 RMK A01 T01920081  RH  048%=      5-min Rain = 0
KCO3 090715Z 03005KT 19/08 A2993 RMK A01 T01910079  RH  048%=      5-min Rain = 0
KCO3 090716Z 03006KT 19/08 A2993 RMK A01 T01910080  RH  048%=      5-min Rain = 0
KCO3 090717Z 04005KT 19/08 A2993 RMK A01 T01900080  RH  049%=      5-min Rain = 0
KCO3 090718Z 03004KT 19/08 A2993 RMK A01 T01900079  RH  048%=      5-min Rain = 0
KCO3 090719Z 04005KT 19/08 A2993 RMK A01 T01900079  RH  048%=      5-min Rain = 0
KCO3 090720Z 04004KT 19/08 A2993 RMK A01 T01900079  RH  048%=      5-min Rain = 0
KCO3 090721Z 04004KT 19/08 A2993 RMK A01 T01900079  RH  049%=      5-min Rain = 0
KCO3 090722Z 04004KT 19/08 A2993 RMK A01 T01900079  RH  048%=      5-min Rain = 0
KCO3 090723Z 04005KT 19/08 A2993 RMK A01 T01900079  RH  048%=      5-min Rain = 0
KCO3 090724Z 04004KT 19/08 A2993 RMK A01 T01890079  RH  049%=      5-min Rain = 0
KCO3 090725Z 03005KT 19/08 A2993 RMK A01 T01890079  RH  049%=      5-min Rain = 0
KCO3 090726Z 04004KT 19/08 A2993 RMK A01 T01880079  RH  049%=      5-min Rain = 0
KCO3 090727Z 03005KT 19/08 A2993 RMK A01 T01880079  RH  049%=      5-min Rain = 0
KCO3 090728Z 03005KT 19/08 A2993 RMK A01 T01880079  RH  049%=      5-min Rain = 0
KCO3 090729Z 03005KT 19/08 A2993 RMK A01 T01880079  RH  049%=      5-min Rain = 0
KCO3 090730Z 03005KT 19/08 A2993 RMK A01 T01880079  RH  049%=      5-min Rain = 0
KCO3 090731Z 03005KT 19/08 A2992 RMK A01 T01880079  RH  049%=      5-min Rain = 0
KCO3 090732Z 03005KT 19/08 A2992 RMK A01 T01870079  RH  049%=      5-min Rain = 0
KCO3 090733Z 03005KT 19/08 A2992 RMK A01 T01860078  RH  049%=      5-min Rain = 0
KCO3 090734Z 03005KT 19/08 A2992 RMK A01 T01860078  RH  049%=      5-min Rain = 0
KCO3 090735Z 03005KT 19/08 A2992 RMK A01 T01860078  RH  050%=      5-min Rain = 0
KCO3 090736Z 03005KT 19/08 A2992 RMK A01 T01860078  RH  050%=      5-min Rain = 0
KCO3 090737Z 03005KT 19/08 A2992 RMK A01 T01850079  RH  050%=      5-min Rain = 0
KCO3 090738Z 02005KT 19/08 A2992 RMK A01 T01850079  RH  050%=      5-min Rain = 0
KCO3 090739Z 02005KT 18/08 A2992 RMK A01 T01840078  RH  050%=      5-min Rain = 0
KCO3 090740Z 02005KT 18/08 A2992 RMK A01 T01840079  RH  050%=      5-min Rain = 0
KCO3 090741Z 02005KT 18/08 A2992 RMK A01 T01830078  RH  050%=      5-min Rain = 0
KCO3 090742Z 03004KT 18/08 A2992 RMK A01 T01830078  RH  051%=      5-min Rain = 0
KCO3 090743Z 03004KT 18/08 A2992 RMK A01 T01820078  RH  051%=      5-min Rain = 0
KCO3 090744Z 03004KT 18/08 A2992 RMK A01 T01820078  RH  051%=      5-min Rain = 0
KCO3 090745Z 03004KT 18/08 A2992 RMK A01 T01820078  RH  051%=      5-min Rain = 0
KCO3 090746Z 03004KT 18/08 A2992 RMK A01 T01820078  RH  050%=      5-min Rain = 0
KCO3 090747Z 03003KT 18/08 A2992 RMK A01 T01820078  RH  050%=      5-min Rain = 0
KCO3 090748Z 04004KT 18/08 A2992 RMK A01 T01820078  RH  050%=      5-min Rain = 0
KCO3 090749Z 04003KT 18/08 A2993 RMK A01 T01820078  RH  051%=      5-min Rain = 0
KCO3 090750Z 05003KT 18/08 A2993 RMK A01 T01820078  RH  051%=      5-min Rain = 0
KCO3 090751Z 05002KT 18/08 A2993 RMK A01 T01810078  RH  051%=      5-min Rain = 0
KCO3 090752Z 05002KT 18/08 A2993 RMK A01 T01800078  RH  051%=      5-min Rain = 0
KCO3 090753Z 05002KT 18/08 A2992 RMK A01 T01790078  RH  052%=      5-min Rain = 0
KCO3 090754Z 06002KT 18/08 A2992 RMK A01 T01780078  RH  052%=      5-min Rain = 0
KCO3 090755Z 06002KT 18/08 A2992 RMK A01 T01770079  RH  052%=      5-min Rain = 0
KCO3 090756Z 06002KT 18/08 A2992 RMK A01 T01750079  RH  053%=      5-min Rain = 0
KCO3 090757Z 08001KT 17/08 A2992 RMK A01 T01720078  RH  054%=      5-min Rain = 0
KCO3 090758Z 12001KT 17/08 A2992 RMK A01 T01690078  RH  055%=      5-min Rain = 0
KCO3 090759Z 12001KT 17/08 A2992 RMK A01 T01670078  RH  056%=      5-min Rain = 0
KCO3 090800Z 10001KT 17/08 A2992 RMK A01 T01660078  RH  056%=      5-min Rain = 0
KCO3 090801Z 08002KT 16/08 A2992 RMK A01 T01640078  RH  057%=      5-min Rain = 0
KCO3 090802Z 07001KT 16/08 A2992 RMK A01 T01630078  RH  057%=      5-min Rain = 0
KCO3 090803Z 07002KT 16/08 A2992 RMK A01 T01630078  RH  057%=      5-min Rain = 0
KCO3 090804Z 06002KT 16/08 A2992 RMK A01 T01630078  RH  057%=      5-min Rain = 0
KCO3 090805Z 08002KT 16/08 A2992 RMK A01 T01630078  RH  057%=      5-min Rain = 0
KCO3 090806Z 08002KT 16/08 A2992 RMK A01 T01630078  RH  057%=      5-min Rain = 0
KCO3 090807Z 08001KT 16/08 A2992 RMK A01 T01640079  RH  057%=      5-min Rain = 0
KCO3 090808Z 09001KT 16/08 A2992 RMK A01 T01640079  RH  057%=      5-min Rain = 0
KCO3 090809Z 10001KT 16/08 A2991 RMK A01 T01640083  RH  058%=      5-min Rain = 0
KCO3 090810Z 09001KT 16/08 A2991 RMK A01 T01630082  RH  058%=      5-min Rain = 0
KCO3 090811Z 08001KT 16/08 A2991 RMK A01 T01620081  RH  059%=      5-min Rain = 0
KCO3 090812Z 08001KT 16/08 A2991 RMK A01 T01600080  RH  059%=      5-min Rain = 0
KCO3 090813Z 08001KT 16/08 A2991 RMK A01 T01580078  RH  059%=      5-min Rain = 0
KCO3 090814Z 05000KT 16/08 A2991 RMK A01 T01570078  RH  059%=      5-min Rain = 0
KCO3 090815Z 04001KT 16/08 A2991 RMK A01 T01570078  RH  060%=      5-min Rain = 0
KCO3 090816Z 06001KT 16/08 A2991 RMK A01 T01560079  RH  060%=      5-min Rain = 0
KCO3 090817Z 06001KT 16/08 A2991 RMK A01 T01560077  RH  060%=      5-min Rain = 0
KCO3 090818Z 07000KT 16/08 A2991 RMK A01 T01550080  RH  061%=      5-min Rain = 0
KCO3 090819Z 08001KT 15/08 A2991 RMK A01 T01540079  RH  061%=      5-min Rain = 0
KCO3 090820Z 05000KT 15/08 A2991 RMK A01 T01530077  RH  061%=      5-min Rain = 0
KCO3 090821Z 00000KT 15/08 A2991 RMK A01 T01510076  RH  061%=      5-min Rain = 0
KCO3 090822Z 00000KT 15/08 A2991 RMK A01 T01480076  RH  062%=      5-min Rain = 0
KCO3 090823Z 00000KT 15/08 A2992 RMK A01 T01470076  RH  062%=      5-min Rain = 0
KCO3 090824Z 00000KT 15/08 A2992 RMK A01 T01460080  RH  065%=      5-min Rain = 0
KCO3 090825Z 00000KT 14/08 A2992 RMK A01 T01440078  RH  064%=      5-min Rain = 0
KCO3 090826Z 19000KT 14/08 A2992 RMK A01 T01430076  RH  064%=      5-min Rain = 0
KCO3 090827Z 19000KT 14/08 A2992 RMK A01 T01410075  RH  065%=      5-min Rain = 0
KCO3 090828Z 00000KT 14/08 A2992 RMK A01 T01400076  RH  065%=      5-min Rain = 0
KCO3 090829Z 00000KT 14/08 A2992 RMK A01 T01390076  RH  065%=      5-min Rain = 0
KCO3 090830Z 00000KT 14/08 A2992 RMK A01 T01400076  RH  065%=      5-min Rain = 0
KCO3 090831Z 00000KT 14/08 A2992 RMK A01 T01400079  RH  066%=      5-min Rain = 0
KCO3 090832Z 00000KT 14/08 A2992 RMK A01 T01390078  RH  067%=      5-min Rain = 0
KCO3 090833Z 00000KT 14/08 A2992 RMK A01 T01390077  RH  067%=      5-min Rain = 0
KCO3 090834Z 00000KT 14/08 A2992 RMK A01 T01380077  RH  066%=      5-min Rain = 0
KCO3 090835Z 04000KT 14/08 A2992 RMK A01 T01390076  RH  066%=      5-min Rain = 0
KCO3 090836Z 00000KT 14/08 A2992 RMK A01 T01410077  RH  065%=      5-min Rain = 0
KCO3 090837Z 25000KT 14/08 A2992 RMK A01 T01410077  RH  065%=      5-min Rain = 0
KCO3 090838Z 00000KT 14/08 A2992 RMK A01 T01410080  RH  067%=      5-min Rain = 0
KCO3 090839Z 00000KT 14/08 A2992 RMK A01 T01400078  RH  066%=      5-min Rain = 0
KCO3 090840Z 00000KT 14/08 A2992 RMK A01 T01400078  RH  066%=      5-min Rain = 0
KCO3 090841Z 11000KT 14/08 A2992 RMK A01 T01400079  RH  067%=      5-min Rain = 0
KCO3 090842Z 05001KT 14/08 A2992 RMK A01 T01390079  RH  067%=      5-min Rain = 0
KCO3 090843Z 05000KT 14/08 A2992 RMK A01 T01380078  RH  067%=      5-min Rain = 0
KCO3 090844Z 00000KT 14/08 A2992 RMK A01 T01380079  RH  068%=      5-min Rain = 0
KCO3 090845Z 10000KT 14/08 A2991 RMK A01 T01370079  RH  068%=      5-min Rain = 0
KCO3 090846Z 07000KT 14/08 A2991 RMK A01 T01350079  RH  069%=      5-min Rain = 0
KCO3 090847Z 12000KT 13/08 A2991 RMK A01 T01340078  RH  069%=      5-min Rain = 0
KCO3 090848Z 00000KT 13/08 A2991 RMK A01 T01330077  RH  069%=      5-min Rain = 0
KCO3 090849Z 08000KT 13/08 A2991 RMK A01 T01310076  RH  069%=      5-min Rain = 0
KCO3 090850Z 00000KT 13/08 A2991 RMK A01 T01310077  RH  070%=      5-min Rain = 0
KCO3 090851Z 06000KT 13/08 A2991 RMK A01 T01300077  RH  070%=      5-min Rain = 0
KCO3 090852Z 00000KT 13/08 A2991 RMK A01 T01290076  RH  070%=      5-min Rain = 0
KCO3 090853Z 06000KT 13/08 A2991 RMK A01 T01290078  RH  071%=      5-min Rain = 0
KCO3 090854Z 05001KT 13/08 A2991 RMK A01 T01290075  RH  070%=      5-min Rain = 0
KCO3 090855Z 05001KT 13/08 A2991 RMK A01 T01290075  RH  070%=      5-min Rain = 0
KCO3 090856Z 04000KT 13/08 A2991 RMK A01 T01290075  RH  070%=      5-min Rain = 0
KCO3 090857Z 00000KT 13/08 A2991 RMK A01 T01290075  RH  070%=      5-min Rain = 0
KCO3 090858Z 00000KT 13/08 A2991 RMK A01 T01290075  RH  070%=      5-min Rain = 0
KCO3 090859Z 36001KT 13/08 A2991 RMK A01 T01290075  RH  070%=      5-min Rain = 0
KCO3 090900Z 35001KT 13/08 A2991 RMK A01 T01280075  RH  070%=      5-min Rain = 0
KCO3 090901Z 00001KT 13/07 A2991 RMK A01 T01260072  RH  070%=      5-min Rain = 0
KCO3 090902Z 00002KT 12/07 A2991 RMK A01 T01240072  RH  071%=      5-min Rain = 0
KCO3 090903Z 01002KT 12/07 A2991 RMK A01 T01230072  RH  071%=      5-min Rain = 0
KCO3 090904Z 01002KT 12/07 A2992 RMK A01 T01210072  RH  072%=      5-min Rain = 0
KCO3 090905Z 02002KT 12/07 A2991 RMK A01 T01200073  RH  073%=      5-min Rain = 0
KCO3 090906Z 03003KT 12/07 A2991 RMK A01 T01190074  RH  074%=      5-min Rain = 0
KCO3 090907Z 03003KT 12/07 A2991 RMK A01 T01180074  RH  074%=      5-min Rain = 0
KCO3 090908Z 03003KT 12/07 A2991 RMK A01 T01170074  RH  075%=      5-min Rain = 0
KCO3 090909Z 03003KT 12/07 A2991 RMK A01 T01170074  RH  075%=      5-min Rain = 0
KCO3 090910Z 03002KT 12/07 A2991 RMK A01 T01170072  RH  074%=      5-min Rain = 0
KCO3 090911Z 03001KT 12/07 A2991 RMK A01 T01150070  RH  074%=      5-min Rain = 0
KCO3 090912Z 03000KT 11/07 A2991 RMK A01 T01120069  RH  075%=      5-min Rain = 0
KCO3 090913Z 00000KT 11/07 A2991 RMK A01 T01100071  RH  077%=      5-min Rain = 0
KCO3 090914Z 25000KT 11/07 A2991 RMK A01 T01090070  RH  077%=      5-min Rain = 0
KCO3 090915Z 26001KT 11/07 A2991 RMK A01 T01080068  RH  077%=      5-min Rain = 0
KCO3 090916Z 25002KT 11/07 A2991 RMK A01 T01060070  RH  078%=      5-min Rain = 0
KCO3 090917Z 25003KT 11/07 A2991 RMK A01 T01060068  RH  078%=      5-min Rain = 0
KCO3 090918Z 25002KT 11/07 A2991 RMK A01 T01060072  RH  080%=      5-min Rain = 0
KCO3 090919Z 25002KT 11/07 A2991 RMK A01 T01060072  RH  079%=      5-min Rain = 0
KCO3 090920Z 24002KT 11/07 A2991 RMK A01 T01070072  RH  079%=      5-min Rain = 0
KCO3 090921Z 25002KT 11/07 A2991 RMK A01 T01080073  RH  079%=      5-min Rain = 0
KCO3 090922Z 25002KT 11/07 A2991 RMK A01 T01100074  RH  079%=      5-min Rain = 0
KCO3 090923Z 25001KT 11/08 A2991 RMK A01 T01130075  RH  078%=      5-min Rain = 0
KCO3 090924Z 24002KT 12/08 A2991 RMK A01 T01150075  RH  077%=      5-min Rain = 0
KCO3 090925Z 24002KT 12/08 A2991 RMK A01 T01160075  RH  076%=      5-min Rain = 0
KCO3 090926Z 24002KT 12/07 A2991 RMK A01 T01170074  RH  075%=      5-min Rain = 0
KCO3 090927Z 24002KT 12/07 A2991 RMK A01 T01170074  RH  075%=      5-min Rain = 0
KCO3 090928Z 24002KT 12/08 A2991 RMK A01 T01170075  RH  075%=      5-min Rain = 0
KCO3 090929Z 26002KT 12/07 A2991 RMK A01 T01170074  RH  075%=      5-min Rain = 0
KCO3 090930Z 26002KT 12/07 A2991 RMK A01 T01160074  RH  075%=      5-min Rain = 0
KCO3 090931Z 27002KT 12/07 A2991 RMK A01 T01160074  RH  076%=      5-min Rain = 0
KCO3 090932Z 27001KT 12/08 A2991 RMK A01 T01160075  RH  076%=      5-min Rain = 0
KCO3 090933Z 27001KT 12/08 A2991 RMK A01 T01160075  RH  076%=      5-min Rain = 0
KCO3 090934Z 27001KT 12/08 A2991 RMK A01 T01160075  RH  076%=      5-min Rain = 0
KCO3 090935Z 28002KT 12/08 A2991 RMK A01 T01160075  RH  076%=      5-min Rain = 0
KCO3 090936Z 28002KT 12/07 A2991 RMK A01 T01160074  RH  075%=      5-min Rain = 0
KCO3 090937Z 28002KT 12/07 A2991 RMK A01 T01160074  RH  076%=      5-min Rain = 0
KCO3 090938Z 29002KT 12/07 A2991 RMK A01 T01150074  RH  076%=      5-min Rain = 0
KCO3 090939Z 28002KT 11/07 A2991 RMK A01 T01140074  RH  076%=      5-min Rain = 0
KCO3 090940Z 27002KT 11/07 A2991 RMK A01 T01130074  RH  077%=      5-min Rain = 0
KCO3 090941Z 28002KT 11/07 A2991 RMK A01 T01130074  RH  077%=      5-min Rain = 0
KCO3 090942Z 28002KT 11/07 A2991 RMK A01 T01120074  RH  077%=      5-min Rain = 0
KCO3 090943Z 28002KT 11/07 A2991 RMK A01 T01120073  RH  077%=      5-min Rain = 0
KCO3 090944Z 30001KT 11/07 A2991 RMK A01 T01110073  RH  078%=      5-min Rain = 0
KCO3 090945Z 31001KT 11/07 A2991 RMK A01 T01110074  RH  078%=      5-min Rain = 0
KCO3 090946Z 32001KT 11/07 A2991 RMK A01 T01120074  RH  077%=      5-min Rain = 0
KCO3 090947Z 32002KT 11/07 A2991 RMK A01 T01140074  RH  076%=      5-min Rain = 0
KCO3 090948Z 32002KT 11/07 A2991 RMK A01 T01140074  RH  076%=      5-min Rain = 0
KCO3 090949Z 32002KT 11/07 A2991 RMK A01 T01140074  RH  076%=      5-min Rain = 0
KCO3 090950Z 32002KT 12/07 A2991 RMK A01 T01150074  RH  076%=      5-min Rain = 0
KCO3 090951Z 32002KT 11/07 A2991 RMK A01 T01140073  RH  076%=      5-min Rain = 0
KCO3 090952Z 33002KT 11/07 A2991 RMK A01 T01130072  RH  076%=      5-min Rain = 0
KCO3 090953Z 34002KT 11/07 A2991 RMK A01 T01120071  RH  076%=      5-min Rain = 0
KCO3 090954Z 34002KT 11/07 A2991 RMK A01 T01110071  RH  077%=      5-min Rain = 0
KCO3 090955Z 36002KT 11/07 A2991 RMK A01 T01100071  RH  077%=      5-min Rain = 0
KCO3 090956Z 01002KT 11/07 A2991 RMK A01 T01090070  RH  077%=      5-min Rain = 0
KCO3 090957Z 03002KT 11/07 A2991 RMK A01 T01080071  RH  078%=      5-min Rain = 0
KCO3 090958Z 04002KT 11/07 A2991 RMK A01 T01070071  RH  078%=      5-min Rain = 0
KCO3 090959Z 05002KT 11/07 A2991 RMK A01 T01070071  RH  078%=      5-min Rain = 0
KCO3 091000Z 05002KT 11/07 A2991 RMK A01 T01060070  RH  078%=      5-min Rain = 0
KCO3 091001Z 05001KT 11/07 A2991 RMK A01 T01050067  RH  077%=      5-min Rain = 0
KCO3 091002Z 05001KT 10/07 A2991 RMK A01 T01040066  RH  077%=      5-min Rain = 0
KCO3 091003Z 04001KT 10/07 A2991 RMK A01 T01020066  RH  078%=      5-min Rain = 0
KCO3 091004Z 03001KT 10/07 A2991 RMK A01 T01010066  RH  079%=      5-min Rain = 0
KCO3 091005Z 02001KT 10/07 A2991 RMK A01 T00990066  RH  080%=      5-min Rain = 0
KCO3 091006Z 35001KT 10/07 A2991 RMK A01 T00970066  RH  081%=      5-min Rain = 0
KCO3 091007Z 33001KT 10/07 A2991 RMK A01 T00960066  RH  082%=      5-min Rain = 0
KCO3 091008Z 31002KT 10/07 A2991 RMK A01 T00950069  RH  084%=      5-min Rain = 0
KCO3 091009Z 30003KT 10/07 A2991 RMK A01 T00950070  RH  084%=      5-min Rain = 0
KCO3 091010Z 29003KT 10/07 A2991 RMK A01 T00950071  RH  085%=      5-min Rain = 0
KCO3 091011Z 28004KT 10/07 A2991 RMK A01 T00970069  RH  083%=      5-min Rain = 0
KCO3 091012Z 28003KT 10/07 A2991 RMK A01 T00970070  RH  083%=      5-min Rain = 0
KCO3 091013Z 28003KT 10/07 A2991 RMK A01 T00970071  RH  084%=      5-min Rain = 0
KCO3 091014Z 28003KT 10/07 A2991 RMK A01 T00980072  RH  084%=      5-min Rain = 0
KCO3 091015Z 28003KT 10/07 A2991 RMK A01 T00990071  RH  083%=      5-min Rain = 0
KCO3 091016Z 28003KT 10/07 A2991 RMK A01 T01000072  RH  083%=      5-min Rain = 0
KCO3 091017Z 28003KT 10/07 A2991 RMK A01 T01020072  RH  082%=      5-min Rain = 0
KCO3 091018Z 28004KT 10/07 A2991 RMK A01 T01030072  RH  081%=      5-min Rain = 0
KCO3 091019Z 27004KT 10/07 A2991 RMK A01 T01030072  RH  081%=      5-min Rain = 0
KCO3 091020Z 28004KT 10/07 A2991 RMK A01 T01040071  RH  080%=      5-min Rain = 0
KCO3 091021Z 28004KT 10/07 A2991 RMK A01 T01040071  RH  080%=      5-min Rain = 0
KCO3 091022Z 28004KT 10/07 A2991 RMK A01 T01040071  RH  080%=      5-min Rain = 0
KCO3 091023Z 28004KT 10/07 A2991 RMK A01 T01040071  RH  080%=      5-min Rain = 0
KCO3 091024Z 28004KT 10/07 A2992 RMK A01 T01030070  RH  080%=      5-min Rain = 0
KCO3 091025Z 29004KT 10/07 A2992 RMK A01 T01020070  RH  081%=      5-min Rain = 0
KCO3 091026Z 29005KT 10/07 A2992 RMK A01 T01010070  RH  081%=      5-min Rain = 0
KCO3 091027Z 29005KT 10/07 A2992 RMK A01 T01010070  RH  081%=      5-min Rain = 0
KCO3 091028Z 29005KT 10/07 A2992 RMK A01 T01000070  RH  082%=      5-min Rain = 0
KCO3 091029Z 30006KT 10/07 A2992 RMK A01 T00980070  RH  083%=      5-min Rain = 0
KCO3 091030Z 30005KT 10/07 A2992 RMK A01 T00980071  RH  083%=      5-min Rain = 0
KCO3 091031Z 30005KT 10/07 A2992 RMK A01 T00970071  RH  084%=      5-min Rain = 0
KCO3 091032Z 30005KT 10/07 A2992 RMK A01 T00970071  RH  083%=      5-min Rain = 0
KCO3 091033Z 29005KT 10/07 A2992 RMK A01 T00970071  RH  084%=      5-min Rain = 0
KCO3 091034Z 29005KT 10/07 A2992 RMK A01 T00970071  RH  084%=      5-min Rain = 0
KCO3 091035Z 29006KT 10/07 A2992 RMK A01 T00980071  RH  084%=      5-min Rain = 0
KCO3 091036Z 29005KT 10/07 A2992 RMK A01 T00980071  RH  083%=      5-min Rain = 0
KCO3 091037Z 29005KT 10/07 A2993 RMK A01 T00990071  RH  083%=      5-min Rain = 0
KCO3 091038Z 28004KT 10/07 A2993 RMK A01 T00990071  RH  083%=      5-min Rain = 0
KCO3 091039Z 29004KT 10/07 A2993 RMK A01 T01000071  RH  082%=      5-min Rain = 0
KCO3 091040Z 29004KT 10/07 A2993 RMK A01 T01000070  RH  082%=      5-min Rain = 0
KCO3 091041Z 29003KT 10/07 A2993 RMK A01 T01000070  RH  081%=      5-min Rain = 0
KCO3 091042Z 29003KT 10/07 A2993 RMK A01 T01010070  RH  081%=      5-min Rain = 0
KCO3 091043Z 29003KT 10/07 A2993 RMK A01 T01020070  RH  081%=      5-min Rain = 0
KCO3 091044Z 29003KT 10/07 A2993 RMK A01 T01020070  RH  081%=      5-min Rain = 0
KCO3 091045Z 29002KT 10/07 A2993 RMK A01 T01020070  RH  080%=      5-min Rain = 0
KCO3 091046Z 30002KT 10/07 A2993 RMK A01 T01020070  RH  080%=      5-min Rain = 0
KCO3 091047Z 29003KT 10/07 A2993 RMK A01 T01020070  RH  080%=      5-min Rain = 0
KCO3 091048Z 30002KT 10/07 A2993 RMK A01 T01020070  RH  080%=      5-min Rain = 0
KCO3 091049Z 31003KT 10/07 A2993 RMK A01 T01020070  RH  080%=      5-min Rain = 0
KCO3 091050Z 32002KT 10/07 A2994 RMK A01 T01030070  RH  080%=      5-min Rain = 0
KCO3 091051Z 32002KT 10/07 A2994 RMK A01 T01030070  RH  080%=      5-min Rain = 0
KCO3 091052Z 32001KT 10/07 A2994 RMK A01 T01040069  RH  079%=      5-min Rain = 0
KCO3 091053Z 34001KT 10/07 A2994 RMK A01 T01040069  RH  079%=      5-min Rain = 0
KCO3 091054Z 33002KT 10/07 A2994 RMK A01 T01040069  RH  079%=      5-min Rain = 0
KCO3 091055Z 33001KT 11/07 A2994 RMK A01 T01050069  RH  078%=      5-min Rain = 0
KCO3 091056Z 34001KT 11/07 A2994 RMK A01 T01050068  RH  078%=      5-min Rain = 0
KCO3 091057Z 34000KT 11/07 A2994 RMK A01 T01050069  RH  078%=      5-min Rain = 0
KCO3 091058Z 00000KT 10/07 A2994 RMK A01 T01040069  RH  079%=      5-min Rain = 0
KCO3 091059Z 00000KT 10/07 A2994 RMK A01 T01030067  RH  079%=      5-min Rain = 0
KCO3 091100Z 00000KT 10/07 A2994 RMK A01 T01010067  RH  079%=      5-min Rain = 0
KCO3 091101Z 29000KT 10/07 A2994 RMK A01 T01000067  RH  080%=      5-min Rain = 0
KCO3 091102Z 30001KT 10/07 A2994 RMK A01 T00990067  RH  081%=      5-min Rain = 0
KCO3 091103Z 32000KT 10/07 A2994 RMK A01 T00980068  RH  081%=      5-min Rain = 0
KCO3 091104Z 32001KT 10/07 A2994 RMK A01 T00980068  RH  081%=      5-min Rain = 0
KCO3 091105Z 34001KT 10/07 A2994 RMK A01 T00980068  RH  081%=      5-min Rain = 0
KCO3 091106Z 01001KT 10/07 A2994 RMK A01 T00980069  RH  082%=      5-min Rain = 0
KCO3 091107Z 01002KT 10/07 A2994 RMK A01 T00990069  RH  081%=      5-min Rain = 0
KCO3 091108Z 01003KT 10/07 A2994 RMK A01 T01010070  RH  081%=      5-min Rain = 0
KCO3 091109Z 01002KT 10/07 A2994 RMK A01 T01020070  RH  081%=      5-min Rain = 0
KCO3 091110Z 01003KT 10/07 A2994 RMK A01 T01020070  RH  080%=      5-min Rain = 0
KCO3 091111Z 01004KT 10/07 A2994 RMK A01 T01030069  RH  080%=      5-min Rain = 0
KCO3 091112Z 01005KT 10/07 A2993 RMK A01 T01030070  RH  080%=      5-min Rain = 0
KCO3 091113Z 01005KT 10/07 A2993 RMK A01 T01020071  RH  081%=      5-min Rain = 0
KCO3 091114Z 01006KT 10/07 A2993 RMK A01 T01010070  RH  081%=      5-min Rain = 0
KCO3 091115Z 00006KT 10/07 A2994 RMK A01 T01020069  RH  080%=      5-min Rain = 0
KCO3 091116Z 00007KT 11/07 A2994 RMK A01 T01050069  RH  078%=      5-min Rain = 0
KCO3 091117Z 00006KT 11/07 A2994 RMK A01 T01070069  RH  077%=      5-min Rain = 0
KCO3 091118Z 00006KT 11/07 A2994 RMK A01 T01130070  RH  075%=      5-min Rain = 0
KCO3 091119Z 00006KT 12/07 A2994 RMK A01 T01190071  RH  072%=      5-min Rain = 0
KCO3 091120Z 00006KT 13/07 A2993 RMK A01 T01250072  RH  070%=      5-min Rain = 0
KCO3 091121Z 00006KT 13/07 A2993 RMK A01 T01300072  RH  068%=      5-min Rain = 0
KCO3 091122Z 00006KT 13/07 A2993 RMK A01 T01330072  RH  067%=      5-min Rain = 0
KCO3 091123Z 00006KT 13/07 A2994 RMK A01 T01340072  RH  066%=      5-min Rain = 0
KCO3 091124Z 00005KT 14/07 A2994 RMK A01 T01360072  RH  065%=      5-min Rain = 0
KCO3 091125Z 36006KT 14/07 A2994 RMK A01 T01360072  RH  065%=      5-min Rain = 0
KCO3 091126Z 00006KT 14/07 A2994 RMK A01 T01360072  RH  065%=      5-min Rain = 0
KCO3 091127Z 00006KT 14/07 A2994 RMK A01 T01360072  RH  065%=      5-min Rain = 0
KCO3 091128Z 00006KT 14/07 A2994 RMK A01 T01360073  RH  066%=      5-min Rain = 0
KCO3 091129Z 00005KT 14/07 A2994 RMK A01 T01350073  RH  066%=      5-min Rain = 0
KCO3 091130Z 36005KT 13/07 A2994 RMK A01 T01340073  RH  066%=      5-min Rain = 0
KCO3 091131Z 36006KT 13/07 A2994 RMK A01 T01340073  RH  066%=      5-min Rain = 0
KCO3 091132Z 00006KT 13/07 A2994 RMK A01 T01340073  RH  066%=      5-min Rain = 0
KCO3 091133Z 00007KT 13/07 A2994 RMK A01 T01340072  RH  066%=      5-min Rain = 0
KCO3 091134Z 00006KT 13/07 A2994 RMK A01 T01340072  RH  066%=      5-min Rain = 0
KCO3 091135Z 01006KT 13/07 A2994 RMK A01 T01330073  RH  067%=      5-min Rain = 0
KCO3 091136Z 01006KT 13/07 A2994 RMK A01 T01330073  RH  067%=      5-min Rain = 0
KCO3 091137Z 00006KT 13/07 A2994 RMK A01 T01320073  RH  067%=      5-min Rain = 0
KCO3 091138Z 00006KT 13/07 A2994 RMK A01 T01310073  RH  068%=      5-min Rain = 0
KCO3 091139Z 36006KT 13/07 A2995 RMK A01 T01310073  RH  068%=      5-min Rain = 0
KCO3 091140Z 00006KT 13/07 A2995 RMK A01 T01310073  RH  068%=      5-min Rain = 0
KCO3 091141Z 00005KT 13/07 A2995 RMK A01 T01300073  RH  068%=      5-min Rain = 0
KCO3 091142Z 00005KT 13/07 A2995 RMK A01 T01300073  RH  068%=      5-min Rain = 0
KCO3 091143Z 01004KT 13/07 A2996 RMK A01 T01290073  RH  069%=      5-min Rain = 0
KCO3 091144Z 00004KT 13/07 A2996 RMK A01 T01290073  RH  069%=      5-min Rain = 0
KCO3 091145Z 35004KT 13/07 A2996 RMK A01 T01290073  RH  069%=      5-min Rain = 0
KCO3 091146Z 35004KT 13/07 A2996 RMK A01 T01290073  RH  068%=      5-min Rain = 0
KCO3 091147Z 35004KT 13/07 A2996 RMK A01 T01290073  RH  069%=      5-min Rain = 0
KCO3 091148Z 35003KT 13/07 A2996 RMK A01 T01290073  RH  069%=      5-min Rain = 0
KCO3 091149Z 35003KT 13/07 A2996 RMK A01 T01280073  RH  069%=      5-min Rain = 0
KCO3 091150Z 35002KT 13/07 A2996 RMK A01 T01270072  RH  069%=      5-min Rain = 0
KCO3 091151Z 35002KT 13/07 A2997 RMK A01 T01270072  RH  069%=      5-min Rain = 0
KCO3 091152Z 34002KT 13/07 A2997 RMK A01 T01260072  RH  069%=      5-min Rain = 0
KCO3 091153Z 35002KT 12/07 A2997 RMK A01 T01240071  RH  070%=      5-min Rain = 0
KCO3 091154Z 00002KT 12/07 A2997 RMK A01 T01220071  RH  071%=      5-min Rain = 0
KCO3 091155Z 00002KT 12/07 A2996 RMK A01 T01200071  RH  072%=      5-min Rain = 0
KCO3 091156Z 36002KT 12/07 A2996 RMK A01 T01180072  RH  073%=      5-min Rain = 0
KCO3 091157Z 00003KT 12/07 A2996 RMK A01 T01150072  RH  075%=      5-min Rain = 0
KCO3 091158Z 36004KT 11/07 A2996 RMK A01 T01140072  RH  075%=      5-min Rain = 0
KCO3 091159Z 35005KT 11/07 A2996 RMK A01 T01140072  RH  075%=      5-min Rain = 0
KCO3 091200Z 35005KT 12/07 A2996 RMK A01 T01160072  RH  074%=      5-min Rain = 0
KCO3 091201Z 35005KT 12/07 A2996 RMK A01 T01180072  RH  073%=      5-min Rain = 0
KCO3 091202Z 35006KT 12/07 A2996 RMK A01 T01190072  RH  073%=      5-min Rain = 0
KCO3 091203Z 35006KT 12/07 A2996 RMK A01 T01200073  RH  073%=      5-min Rain = 0
KCO3 091204Z 36006KT 12/07 A2996 RMK A01 T01210073  RH  072%=      5-min Rain = 0
KCO3 091205Z 36006KT 12/07 A2996 RMK A01 T01230073  RH  072%=      5-min Rain = 0
KCO3 091206Z 36006KT 13/07 A2996 RMK A01 T01250074  RH  071%=      5-min Rain = 0
KCO3 091207Z 00007KT 13/07 A2996 RMK A01 T01260074  RH  071%=      5-min Rain = 0
KCO3 091208Z 00007KT 13/07 A2996 RMK A01 T01270074  RH  070%=      5-min Rain = 0
KCO3 091209Z 00007KT 13/07 A2996 RMK A01 T01280074  RH  070%=      5-min Rain = 0
KCO3 091210Z 36006KT 13/07 A2996 RMK A01 T01290073  RH  069%=      5-min Rain = 0
KCO3 091211Z 00006KT 13/07 A2996 RMK A01 T01300074  RH  069%=      5-min Rain = 0
KCO3 091212Z 00006KT 13/07 A2996 RMK A01 T01300074  RH  068%=      5-min Rain = 0
KCO3 091213Z 00006KT 13/07 A2996 RMK A01 T01300074  RH  068%=      5-min Rain = 0
KCO3 091214Z 36006KT 13/07 A2996 RMK A01 T01300074  RH  069%=      5-min Rain = 0
KCO3 091215Z 36006KT 13/07 A2996 RMK A01 T01300074  RH  069%=      5-min Rain = 0
KCO3 091216Z 00006KT 13/07 A2996 RMK A01 T01290074  RH  069%=      5-min Rain = 0
KCO3 091217Z 00006KT 13/07 A2996 RMK A01 T01290074  RH  069%=      5-min Rain = 0
KCO3 091218Z 00006KT 13/07 A2996 RMK A01 T01280074  RH  069%=      5-min Rain = 0
KCO3 091219Z 01006KT 13/07 A2996 RMK A01 T01280074  RH  070%=      5-min Rain = 0
KCO3 091220Z 01006KT 13/07 A2996 RMK A01 T01270074  RH  070%=      5-min Rain = 0
KCO3 091221Z 01006KT 13/07 A2996 RMK A01 T01270074  RH  070%=      5-min Rain = 0
KCO3 091222Z 00006KT 13/07 A2996 RMK A01 T01260074  RH  071%=      5-min Rain = 0
KCO3 091223Z 00006KT 13/08 A2996 RMK A01 T01250075  RH  071%=      5-min Rain = 0
KCO3 091224Z 36005KT 13/07 A2996 RMK A01 T01250074  RH  071%=      5-min Rain = 0
KCO3 091225Z 00006KT 12/07 A2996 RMK A01 T01240074  RH  071%=      5-min Rain = 0
KCO3 091226Z 00006KT 12/07 A2997 RMK A01 T01240074  RH  071%=      5-min Rain = 0
KCO3 091227Z 01005KT 12/07 A2997 RMK A01 T01240074  RH  072%=      5-min Rain = 0
KCO3 091228Z 01006KT 12/08 A2997 RMK A01 T01240075  RH  072%=      5-min Rain = 0
KCO3 091229Z 00006KT 12/07 A2997 RMK A01 T01240074  RH  072%=      5-min Rain = 0
KCO3 091230Z 00006KT 12/07 A2997 RMK A01 T01240074  RH  072%=      5-min Rain = 0
KCO3 091231Z 00006KT 12/07 A2997 RMK A01 T01240074  RH  071%=      5-min Rain = 0
KCO3 091232Z 00006KT 12/07 A2997 RMK A01 T01240074  RH  071%=      5-min Rain = 0
KCO3 091233Z 00005KT 12/07 A2997 RMK A01 T01240074  RH  071%=      5-min Rain = 0
KCO3 091234Z 36006KT 12/07 A2997 RMK A01 T01240074  RH  071%=      5-min Rain = 0
KCO3 091235Z 36006KT 12/07 A2997 RMK A01 T01240074  RH  072%=      5-min Rain = 0
KCO3 091236Z 36005KT 12/08 A2997 RMK A01 T01240075  RH  072%=      5-min Rain = 0
KCO3 091237Z 36006KT 12/07 A2997 RMK A01 T01240074  RH  072%=      5-min Rain = 0
KCO3 091238Z 36006KT 12/07 A2997 RMK A01 T01240074  RH  072%=      5-min Rain = 0
KCO3 091239Z 00006KT 12/07 A2998 RMK A01 T01240074  RH  072%=      5-min Rain = 0
KCO3 091240Z 00006KT 12/07 A2998 RMK A01 T01240074  RH  072%=      5-min Rain = 0
KCO3 091241Z 00005KT 12/08 A2998 RMK A01 T01240075  RH  072%=      5-min Rain = 0
KCO3 091242Z 00005KT 12/08 A2998 RMK A01 T01240075  RH  072%=      5-min Rain = 0
KCO3 091243Z 01006KT 12/08 A2998 RMK A01 T01240075  RH  072%=      5-min Rain = 0
KCO3 091244Z 01006KT 12/07 A2998 RMK A01 T01240074  RH  072%=      5-min Rain = 0
KCO3 091245Z 01006KT 12/07 A2998 RMK A01 T01240074  RH  071%=      5-min Rain = 0
KCO3 091246Z 01006KT 13/07 A2998 RMK A01 T01250074  RH  071%=      5-min Rain = 0
KCO3 091247Z 01005KT 13/07 A2998 RMK A01 T01260074  RH  070%=      5-min Rain = 0
KCO3 091248Z 00006KT 13/07 A2998 RMK A01 T01270074  RH  070%=      5-min Rain = 0
KCO3 091249Z 00006KT 13/07 A2998 RMK A01 T01270073  RH  070%=      5-min Rain = 0
KCO3 091250Z 00006KT 13/07 A2998 RMK A01 T01280074  RH  070%=      5-min Rain = 0
KCO3 091251Z 00006KT 13/07 A2998 RMK A01 T01280074  RH  070%=      5-min Rain = 0
KCO3 091252Z 00006KT 13/08 A2998 RMK A01 T01280075  RH  070%=      5-min Rain = 0
KCO3 091253Z 01006KT 13/08 A2998 RMK A01 T01280075  RH  070%=      5-min Rain = 0
KCO3 091254Z 01006KT 13/08 A2998 RMK A01 T01280075  RH  070%=      5-min Rain = 0
KCO3 091255Z 01006KT 13/07 A2998 RMK A01 T01280074  RH  070%=      5-min Rain = 0
KCO3 091256Z 00006KT 13/08 A2998 RMK A01 T01280075  RH  070%=      5-min Rain = 0
KCO3 091257Z 00006KT 13/08 A2998 RMK A01 T01280075  RH  070%=      5-min Rain = 0
KCO3 091258Z 00006KT 13/08 A2998 RMK A01 T01280075  RH  070%=      5-min Rain = 0
KCO3 091259Z 00006KT 13/07 A2998 RMK A01 T01280074  RH  070%=      5-min Rain = 0
KCO3 091300Z 00005KT 13/08 A2998 RMK A01 T01290076  RH  070%=      5-min Rain = 0
KCO3 091301Z 00006KT 13/08 A2998 RMK A01 T01290075  RH  070%=      5-min Rain = 0
KCO3 091302Z 00006KT 13/08 A2998 RMK A01 T01290075  RH  070%=      5-min Rain = 0
KCO3 091303Z 00006KT 13/08 A2998 RMK A01 T01290076  RH  070%=      5-min Rain = 0
KCO3 091304Z 01007KT 13/08 A2998 RMK A01 T01290077  RH  071%=      5-min Rain = 0
KCO3 091305Z 01007KT 13/08 A2998 RMK A01 T01290077  RH  071%=      5-min Rain = 0
KCO3 091306Z 00007KT 13/08 A2998 RMK A01 T01290077  RH  071%=      5-min Rain = 0
KCO3 091307Z 01007KT 13/08 A2998 RMK A01 T01290077  RH  071%=      5-min Rain = 0
KCO3 091308Z 00007KT 13/08 A2998 RMK A01 T01290078  RH  071%=      5-min Rain = 0
KCO3 091309Z 00007KT 13/08 A2998 RMK A01 T01290077  RH  071%=      5-min Rain = 0
KCO3 091310Z 36007KT 13/08 A2998 RMK A01 T01290078  RH  071%=      5-min Rain = 0
KCO3 091311Z 00007KT 13/08 A2998 RMK A01 T01300078  RH  071%=      5-min Rain = 0
KCO3 091312Z 01007KT 13/08 A2998 RMK A01 T01300077  RH  070%=      5-min Rain = 0
KCO3 091313Z 01006KT 13/08 A2998 RMK A01 T01300079  RH  071%=      5-min Rain = 0
KCO3 091314Z 01007KT 13/08 A2999 RMK A01 T01300079  RH  071%=      5-min Rain = 0
KCO3 091315Z 36005KT 13/08 A2999 RMK A01 T01310079  RH  071%=      5-min Rain = 0
KCO3 091316Z 36006KT 13/08 A2999 RMK A01 T01310079  RH  071%=      5-min Rain = 0
KCO3 091317Z 00005KT 13/08 A2999 RMK A01 T01320078  RH  070%=      5-min Rain = 0
KCO3 091318Z 36004KT 13/08 A2999 RMK A01 T01320078  RH  070%=      5-min Rain = 0
KCO3 091319Z 35005KT 13/08 A2999 RMK A01 T01330079  RH  070%=      5-min Rain = 0
KCO3 091320Z 34005KT 13/08 A2999 RMK A01 T01330079  RH  070%=      5-min Rain = 0
KCO3 091321Z 35005KT 13/08 A2999 RMK A01 T01340080  RH  070%=      5-min Rain = 0
KCO3 091322Z 35005KT 13/08 A2999 RMK A01 T01340079  RH  069%=      5-min Rain = 0
KCO3 091323Z 35005KT 13/08 A30 RMK A01 T01340080  RH  070%=      5-min Rain = 0
KCO3 091324Z 35006KT 14/08 A30 RMK A01 T01350079  RH  069%=      5-min Rain = 0
KCO3 091325Z 35005KT 14/08 A30 RMK A01 T01350080  RH  069%=      5-min Rain = 0
KCO3 091326Z 34005KT 14/08 A30 RMK A01 T01350081  RH  069%=      5-min Rain = 0
KCO3 091327Z 34004KT 14/08 A30 RMK A01 T01360081  RH  069%=      5-min Rain = 0
KCO3 091328Z 34004KT 14/08 A30 RMK A01 T01360081  RH  070%=      5-min Rain = 0
KCO3 091329Z 34005KT 14/08 A30 RMK A01 T01360083  RH  070%=      5-min Rain = 0
KCO3 091330Z 35004KT 14/08 A30 RMK A01 T01360081  RH  070%=      5-min Rain = 0
KCO3 091331Z 35004KT 14/08 A3001 RMK A01 T01360080  RH  069%=      5-min Rain = 0
KCO3 091332Z 34004KT 14/08 A3001 RMK A01 T01370081  RH  069%=      5-min Rain = 0
KCO3 091333Z 35005KT 14/08 A3001 RMK A01 T01370082  RH  069%=      5-min Rain = 0
KCO3 091334Z 35005KT 14/08 A3001 RMK A01 T01370081  RH  069%=      5-min Rain = 0
KCO3 091335Z 34005KT 14/08 A3001 RMK A01 T01380082  RH  069%=      5-min Rain = 0
KCO3 091336Z 34005KT 14/08 A3001 RMK A01 T01380082  RH  069%=      5-min Rain = 0
KCO3 091337Z 34006KT 14/08 A3001 RMK A01 T01380081  RH  068%=      5-min Rain = 0
KCO3 091338Z 35005KT 14/08 A3001 RMK A01 T01390082  RH  068%=      5-min Rain = 0
KCO3 091339Z 35005KT 14/08 A3001 RMK A01 T01390081  RH  068%=      5-min Rain = 0
KCO3 091340Z 35006KT 14/08 A3001 RMK A01 T01390083  RH  069%=      5-min Rain = 0
KCO3 091341Z 35006KT 14/08 A3001 RMK A01 T01390081  RH  068%=      5-min Rain = 0
KCO3 091342Z 35006KT 14/08 A3001 RMK A01 T01400081  RH  068%=      5-min Rain = 0
KCO3 091343Z 35006KT 14/08 A3001 RMK A01 T01400082  RH  068%=      5-min Rain = 0
KCO3 091344Z 35006KT 14/08 A3001 RMK A01 T01400081  RH  068%=      5-min Rain = 0
KCO3 091345Z 35007KT 14/08 A3001 RMK A01 T01410081  RH  067%=      5-min Rain = 0
KCO3 091346Z 35006KT 14/08 A3001 RMK A01 T01410083  RH  068%=      5-min Rain = 0
KCO3 091347Z 35007KT 14/08 A3001 RMK A01 T01420081  RH  067%=      5-min Rain = 0
KCO3 091348Z 35007KT 14/08 A3001 RMK A01 T01420081  RH  067%=      5-min Rain = 0
KCO3 091349Z 36006KT 14/08 A3001 RMK A01 T01430082  RH  067%=      5-min Rain = 0
KCO3 091350Z 36006KT 14/08 A3001 RMK A01 T01430082  RH  067%=      5-min Rain = 0
KCO3 091351Z 36006KT 14/08 A3001 RMK A01 T01440082  RH  066%=      5-min Rain = 0
KCO3 091352Z 36006KT 14/08 A3001 RMK A01 T01440083  RH  066%=      5-min Rain = 0
KCO3 091353Z 35008KT 15/08 A3001 RMK A01 T01450081  RH  066%=      5-min Rain = 0
KCO3 091354Z 36006KT 15/08 A3001 RMK A01 T01450081  RH  065%=      5-min Rain = 0
KCO3 091355Z 36007KT 15/08 A3001 RMK A01 T01460082  RH  066%=      5-min Rain = 0
KCO3 091356Z 00006KT 15/08 A3001 RMK A01 T01460083  RH  066%=      5-min Rain = 0
KCO3 091357Z 00006KT 15/08 A3001 RMK A01 T01460082  RH  066%=      5-min Rain = 0
KCO3 091358Z 00008KT 15/08 A3001 RMK A01 T01470082  RH  065%=      5-min Rain = 0
KCO3 091359Z 36006KT 15/08 A3001 RMK A01 T01470083  RH  065%=      5-min Rain = 0
KCO3 091400Z 36006KT 15/09 A3001 RMK A01 T01470085  RH  066%=      5-min Rain = 0
KCO3 091401Z 36008KT 15/08 A3001 RMK A01 T01470082  RH  065%=      5-min Rain = 0
KCO3 091402Z 36008KT 15/08 A3001 RMK A01 T01480083  RH  065%=      5-min Rain = 0
KCO3 091403Z 36007KT 15/08 A3001 RMK A01 T01480083  RH  065%=      5-min Rain = 0
KCO3 091404Z 36007KT 15/08 A3001 RMK A01 T01490084  RH  065%=      5-min Rain = 0
KCO3 091405Z 00007KT 15/09 A3001 RMK A01 T01490085  RH  065%=      5-min Rain = 0
KCO3 091406Z 01006KT 15/09 A3001 RMK A01 T01500085  RH  065%=      5-min Rain = 0
KCO3 091407Z 01008KT 15/08 A3001 RMK A01 T01510084  RH  064%=      5-min Rain = 0
KCO3 091408Z 01008KT 15/08 A3001 RMK A01 T01510084  RH  064%=      5-min Rain = 0
KCO3 091409Z 01008KT 15/08 A3001 RMK A01 T01510083  RH  064%=      5-min Rain = 0
KCO3 091410Z 01008KT 15/08 A3002 RMK A01 T01520083  RH  064%=      5-min Rain = 0
KCO3 091411Z 00008KT 15/08 A3002 RMK A01 T01520084  RH  064%=      5-min Rain = 0
KCO3 091412Z 01007KT 15/09 A3002 RMK A01 T01530085  RH  064%=      5-min Rain = 0
KCO3 091413Z 02010KT 15/08 A3002 RMK A01 T01530084  RH  063%=      5-min Rain = 0
KCO3 091414Z 01009KT 15/08 A3002 RMK A01 T01530082  RH  063%=      5-min Rain = 0
KCO3 091415Z 00007KT 15/08 A3002 RMK A01 T01530083  RH  063%=      5-min Rain = 0
KCO3 091416Z 01009KT 15/08 A3002 RMK A01 T01530084  RH  063%=      5-min Rain = 0
KCO3 091417Z 00010KT 15/08 A3002 RMK A01 T01530084  RH  063%=      5-min Rain = 0
KCO3 091418Z 01008KT 15/09 A3002 RMK A01 T01540085  RH  064%=      5-min Rain = 0
KCO3 091419Z 01008KT 15/09 A3002 RMK A01 T01540085  RH  063%=      5-min Rain = 0
KCO3 091420Z 01008KT 16/09 A3002 RMK A01 T01550085  RH  063%=      5-min Rain = 0
KCO3 091421Z 01008KT 16/09 A3002 RMK A01 T01550085  RH  063%=      5-min Rain = 0
KCO3 091422Z 01008KT 16/08 A3002 RMK A01 T01550084  RH  062%=      5-min Rain = 0
KCO3 091423Z 01008KT 16/09 A3002 RMK A01 T01560085  RH  063%=      5-min Rain = 0
KCO3 091424Z 01009KT 16/09 A3002 RMK A01 T01570086  RH  063%=      5-min Rain = 0
KCO3 091425Z 02008KT 16/09 A3002 RMK A01 T01570085  RH  062%=      5-min Rain = 0
KCO3 091426Z 01007KT 16/09 A3002 RMK A01 T01580085  RH  062%=      5-min Rain = 0
KCO3 091427Z 01009KT 16/09 A3002 RMK A01 T01590086  RH  062%=      5-min Rain = 0
KCO3 091428Z 02008KT 16/08 A3002 RMK A01 T01590084  RH  061%=      5-min Rain = 0
KCO3 091429Z 02008KT 16/09 A3002 RMK A01 T01600085  RH  061%=      5-min Rain = 0
KCO3 091430Z 03011KT 16/08 A3002 RMK A01 T01610084  RH  060%=      5-min Rain = 0
KCO3 091431Z 02007G13KT 16/08 A3002 RMK A01 T01620083  RH  059%=      5-min Rain = 0
KCO3 091432Z 02007KT 16/09 A3002 RMK A01 T01620085  RH  060%=      5-min Rain = 0
KCO3 091433Z 02007KT 16/09 A3002 RMK A01 T01630085  RH  060%=      5-min Rain = 0
KCO3 091434Z 02009G14KT 16/09 A3002 RMK A01 T01640085  RH  059%=      5-min Rain = 0
KCO3 091435Z 02010KT 17/09 A3002 RMK A01 T01650085  RH  059%=      5-min Rain = 0
KCO3 091436Z 02010G16KT 17/08 A3002 RMK A01 T01650083  RH  058%=      5-min Rain = 0
KCO3 091437Z 01010G15KT 17/08 A3002 RMK A01 T01650084  RH  059%=      5-min Rain = 0
KCO3 091438Z 02009KT 17/08 A3003 RMK A01 T01650084  RH  059%=      5-min Rain = 0
KCO3 091439Z 02011G16KT 17/08 A3003 RMK A01 T01660084  RH  058%=      5-min Rain = 0
KCO3 091440Z 01010KT 17/08 A3003 RMK A01 T01660084  RH  058%=      5-min Rain = 0
KCO3 091441Z 02011KT 17/08 A3002 RMK A01 T01660084  RH  059%=      5-min Rain = 0
KCO3 091442Z 02012KT 17/08 A3002 RMK A01 T01660082  RH  057%=      5-min Rain = 0
KCO3 091443Z 02010KT 17/08 A3003 RMK A01 T01650083  RH  058%=      5-min Rain = 0
KCO3 091444Z 01010G16KT 17/08 A3003 RMK A01 T01650084  RH  059%=      5-min Rain = 0
KCO3 091445Z 02013KT 16/08 A3003 RMK A01 T01640083  RH  058%=      5-min Rain = 0
KCO3 091446Z 01012KT 16/08 A3003 RMK A01 T01640083  RH  059%=      5-min Rain = 0
KCO3 091447Z 02012KT 16/08 A3003 RMK A01 T01640083  RH  059%=      5-min Rain = 0
KCO3 091448Z 02012KT 16/08 A3003 RMK A01 T01640083  RH  059%=      5-min Rain = 0
KCO3 091449Z 02012KT 16/08 A3003 RMK A01 T01640082  RH  058%=      5-min Rain = 0
KCO3 091450Z 02011KT 16/08 A3003 RMK A01 T01640082  RH  058%=      5-min Rain = 0
KCO3 091451Z 03010KT 17/08 A3003 RMK A01 T01650082  RH  058%=      5-min Rain = 0
KCO3 091452Z 02010KT 17/08 A3004 RMK A01 T01650082  RH  058%=      5-min Rain = 0
KCO3 091453Z 02010KT 17/08 A3003 RMK A01 T01650084  RH  058%=      5-min Rain = 0
KCO3 091454Z 02012KT 17/08 A3003 RMK A01 T01650083  RH  058%=      5-min Rain = 0
KCO3 091455Z 02014KT 17/08 A3003 RMK A01 T01650082  RH  058%=      5-min Rain = 0
KCO3 091456Z 03010KT 17/08 A3003 RMK A01 T01650082  RH  058%=      5-min Rain = 0
KCO3 091457Z 03009KT 17/08 A3004 RMK A01 T01660083  RH  058%=      5-min Rain = 0
KCO3 091458Z 03011KT 17/08 A3003 RMK A01 T01660084  RH  058%=      5-min Rain = 0
KCO3 091459Z 03012G17KT 17/08 A3003 RMK A01 T01660083  RH  058%=      5-min Rain = 0
KCO3 091500Z 03013KT 17/08 A3004 RMK A01 T01660082  RH  057%=      5-min Rain = 0
KCO3 091501Z 04012KT 17/08 A3004 RMK A01 T01660081  RH  057%=      5-min Rain = 0
KCO3 091502Z 02008KT 17/08 A3004 RMK A01 T01650083  RH  058%=      5-min Rain = 0
KCO3 091503Z 02008KT 17/09 A3004 RMK A01 T01660085  RH  059%=      5-min Rain = 0
KCO3 091504Z 04012KT 17/09 A3004 RMK A01 T01670085  RH  058%=      5-min Rain = 0
KCO3 091505Z 04012KT 17/08 A3003 RMK A01 T01670083  RH  058%=      5-min Rain = 0
KCO3 091506Z 04013KT 17/08 A3003 RMK A01 T01660082  RH  058%=      5-min Rain = 0
KCO3 091507Z 04013KT 17/08 A3003 RMK A01 T01650082  RH  058%=      5-min Rain = 0
KCO3 091508Z 04010KT 17/08 A3004 RMK A01 T01650083  RH  058%=      5-min Rain = 0
KCO3 091509Z 04010KT 17/08 A3004 RMK A01 T01660084  RH  059%=      5-min Rain = 0
KCO3 091510Z 03011KT 17/08 A3004 RMK A01 T01670083  RH  058%=      5-min Rain = 0
KCO3 091511Z 05011G16KT 17/08 A3004 RMK A01 T01670082  RH  057%=      5-min Rain = 0
KCO3 091512Z 04009KT 17/08 A3004 RMK A01 T01660082  RH  058%=      5-min Rain = 0
KCO3 091513Z 04009G14KT 17/08 A3004 RMK A01 T01660084  RH  058%=      5-min Rain = 0
KCO3 091514Z 04015KT 17/08 A3004 RMK A01 T01670083  RH  058%=      5-min Rain = 0
KCO3 091515Z 04011KT 17/08 A3004 RMK A01 T01660083  RH  058%=      5-min Rain = 0
KCO3 091516Z 04012KT 17/08 A3004 RMK A01 T01660084  RH  058%=      5-min Rain = 0
KCO3 091517Z 04010G15KT 17/08 A3004 RMK A01 T01660083  RH  058%=      5-min Rain = 0
KCO3 091518Z 04012KT 17/08 A3004 RMK A01 T01660084  RH  058%=      5-min Rain = 0
KCO3 091519Z 04011KT 17/09 A3004 RMK A01 T01670085  RH  058%=      5-min Rain = 0
KCO3 091520Z 03009KT 17/09 A3004 RMK A01 T01680086  RH  058%=      5-min Rain = 0
KCO3 091521Z 03008KT 17/09 A3003 RMK A01 T01690086  RH  058%=      5-min Rain = 0
KCO3 091522Z 03009KT 17/09 A3004 RMK A01 T01700087  RH  058%=      5-min Rain = 0
KCO3 091523Z 04010KT 17/09 A3003 RMK A01 T01710086  RH  057%=      5-min Rain = 0
KCO3 091524Z 03011G17KT 17/09 A3003 RMK A01 T01700087  RH  058%=      5-min Rain = 0
KCO3 091525Z 03011G16KT 17/09 A3003 RMK A01 T01700086  RH  058%=      5-min Rain = 0
KCO3 091526Z 03010KT 17/09 A3003 RMK A01 T01700087  RH  058%=      5-min Rain = 0
KCO3 091527Z 02009KT 17/09 A3003 RMK A01 T01710088  RH  058%=      5-min Rain = 0
KCO3 091528Z 03012KT 17/09 A3003 RMK A01 T01710087  RH  058%=      5-min Rain = 0
KCO3 091529Z 01013G18KT 17/09 A3003 RMK A01 T01710087  RH  058%=      5-min Rain = 0
KCO3 091530Z 02012G17KT 17/09 A3003 RMK A01 T01710087  RH  058%=      5-min Rain = 0
KCO3 091531Z 02013G18KT 17/09 A3003 RMK A01 T01710087  RH  058%=      5-min Rain = 0
KCO3 091532Z 02011KT 17/09 A3003 RMK A01 T01710087  RH  057%=      5-min Rain = 0
KCO3 091533Z 03013KT 17/09 A3003 RMK A01 T01720087  RH  057%=      5-min Rain = 0
KCO3 091534Z 05010KT 17/09 A3003 RMK A01 T01710085  RH  057%=      5-min Rain = 0
KCO3 091535Z 04011G16KT 17/09 A3003 RMK A01 T01700088  RH  058%=      5-min Rain = 0
KCO3 091536Z 03013KT 17/09 A3003 RMK A01 T01710086  RH  057%=      5-min Rain = 0
KCO3 091537Z 03009KT 17/09 A3003 RMK A01 T01700086  RH  058%=      5-min Rain = 0
KCO3 091538Z 03012KT 17/09 A3003 RMK A01 T01700086  RH  058%=      5-min Rain = 0
KCO3 091539Z 03014KT 17/09 A3003 RMK A01 T01700086  RH  057%=      5-min Rain = 0
KCO3 091540Z 03012KT 17/08 A3003 RMK A01 T01700084  RH  057%=      5-min Rain = 0
KCO3 091541Z 03011KT 17/09 A3003 RMK A01 T01690085  RH  058%=      5-min Rain = 0
KCO3 091542Z 02011KT 17/09 A3003 RMK A01 T01690086  RH  058%=      5-min Rain = 0
KCO3 091543Z 02014KT 17/09 A3003 RMK A01 T01700087  RH  058%=      5-min Rain = 0
KCO3 091544Z 02014KT 17/09 A3003 RMK A01 T01700085  RH  057%=      5-min Rain = 0
KCO3 091545Z 04010KT 17/09 A3003 RMK A01 T01700086  RH  058%=      5-min Rain = 0
KCO3 091546Z 04010KT 17/09 A3003 RMK A01 T01700087  RH  058%=      5-min Rain = 0
KCO3 091547Z 05008KT 17/09 A3003 RMK A01 T01710087  RH  057%=      5-min Rain = 0
KCO3 091548Z 05010G15KT 17/09 A3003 RMK A01 T01720088  RH  058%=      5-min Rain = 0
KCO3 091549Z 04011G18KT 17/09 A3003 RMK A01 T01730089  RH  058%=      5-min Rain = 0
KCO3 091550Z 02012G17KT 17/09 A3003 RMK A01 T01740087  RH  057%=      5-min Rain = 0
KCO3 091551Z 01012G18KT 17/09 A3003 RMK A01 T01730087  RH  057%=      5-min Rain = 0
KCO3 091552Z 02008G13KT 17/09 A3003 RMK A01 T01740092  RH  059%=      5-min Rain = 0
KCO3 091553Z 03012KT 18/09 A3003 RMK A01 T01760088  RH  056%=      5-min Rain = 0
KCO3 091554Z 02011G16KT 18/09 A3004 RMK A01 T01750089  RH  057%=      5-min Rain = 0
KCO3 091555Z 02014G20KT 18/09 A3004 RMK A01 T01750088  RH  056%=      5-min Rain = 0
KCO3 091556Z 02014G19KT 18/09 A3004 RMK A01 T01750085  RH  055%=      5-min Rain = 0
KCO3 091557Z 02013KT 17/09 A3004 RMK A01 T01730086  RH  056%=      5-min Rain = 0
KCO3 091558Z 02011G16KT 17/09 A3004 RMK A01 T01730087  RH  057%=      5-min Rain = 0
KCO3 091559Z 02012G17KT 17/09 A3004 RMK A01 T01730087  RH  057%=      5-min Rain = 0
KCO3 091600Z 02013KT 17/09 A3004 RMK A01 T01740086  RH  056%=      5-min Rain = 0
KCO3 091601Z 02014G20KT 17/09 A3004 RMK A01 T01740087  RH  056%=      5-min Rain = 0
KCO3 091602Z 03011KT 17/09 A3004 RMK A01 T01740086  RH  056%=      5-min Rain = 0
KCO3 091603Z 03011KT 17/09 A3004 RMK A01 T01740086  RH  056%=      5-min Rain = 0
KCO3 091604Z 03010G16KT 17/09 A3004 RMK A01 T01740087  RH  057%=      5-min Rain = 0
KCO3 091605Z 03013G18KT 18/09 A3004 RMK A01 T01750085  RH  056%=      5-min Rain = 0
KCO3 091606Z 02010G15KT 17/09 A3004 RMK A01 T01730085  RH  056%=      5-min Rain = 0
KCO3 091607Z 02013KT 17/09 A3004 RMK A01 T01720086  RH  057%=      5-min Rain = 0
KCO3 091608Z 03014KT 17/09 A3004 RMK A01 T01730085  RH  056%=      5-min Rain = 0
KCO3 091609Z 03013G19KT 17/08 A3004 RMK A01 T01730084  RH  056%=      5-min Rain = 0
KCO3 091610Z 04014G20KT 17/09 A3004 RMK A01 T01720085  RH  057%=      5-min Rain = 0
KCO3 091611Z 05011G18KT 17/09 A3004 RMK A01 T01720085  RH  057%=      5-min Rain = 0
KCO3 091612Z 04012KT 17/09 A3004 RMK A01 T01720086  RH  057%=      5-min Rain = 0
KCO3 091613Z 03010G15KT 17/08 A3004 RMK A01 T01730084  RH  056%=      5-min Rain = 0
KCO3 091614Z 03010KT 17/09 A3004 RMK A01 T01720085  RH  056%=      5-min Rain = 0
KCO3 091615Z 01009G21KT 17/09 A3004 RMK A01 T01720087  RH  057%=      5-min Rain = 0
KCO3 091616Z 02014KT 17/09 A3004 RMK A01 T01740087  RH  056%=      5-min Rain = 0
KCO3 091617Z 03010G15KT 18/09 A3004 RMK A01 T01750087  RH  056%=      5-min Rain = 0
KCO3 091618Z 02009KT 18/09 A3004 RMK A01 T01750089  RH  057%=      5-min Rain = 0
KCO3 091619Z 03012KT 18/09 A3004 RMK A01 T01760087  RH  056%=      5-min Rain = 0
KCO3 091620Z 04012KT 18/09 A3004 RMK A01 T01750085  RH  055%=      5-min Rain = 0
KCO3 091621Z 04013G18KT 17/09 A3004 RMK A01 T01740086  RH  056%=      5-min Rain = 0
KCO3 091622Z 03012KT 17/09 A3004 RMK A01 T01740086  RH  056%=      5-min Rain = 0
KCO3 091623Z 02010G15KT 17/09 A3004 RMK A01 T01740087  RH  056%=      5-min Rain = 0
KCO3 091624Z 01014KT 17/09 A3004 RMK A01 T01740087  RH  056%=      5-min Rain = 0
KCO3 091625Z 02012G17KT 17/09 A3004 RMK A01 T01740087  RH  056%=      5-min Rain = 0
KCO3 091626Z 02012KT 17/09 A3004 RMK A01 T01740087  RH  056%=      5-min Rain = 0
KCO3 091627Z 02014KT 17/09 A3004 RMK A01 T01740086  RH  056%=      5-min Rain = 0
KCO3 091628Z 01011G17KT 17/09 A3004 RMK A01 T01730086  RH  056%=      5-min Rain = 0
KCO3 091629Z 02009KT 17/09 A3004 RMK A01 T01730087  RH  057%=      5-min Rain = 0
KCO3 091630Z 01011KT 18/09 A3004 RMK A01 T01750088  RH  057%=      5-min Rain = 0
KCO3 091631Z 02012KT 18/09 A3004 RMK A01 T01750087  RH  056%=      5-min Rain = 0
KCO3 091632Z 05011KT 18/09 A3004 RMK A01 T01750088  RH  056%=      5-min Rain = 0
KCO3 091633Z 05011G16KT 18/09 A3004 RMK A01 T01750086  RH  056%=      5-min Rain = 0
KCO3 091634Z 04009G14KT 17/09 A3004 RMK A01 T01740086  RH  056%=      5-min Rain = 0
KCO3 091635Z 04012G17KT 17/09 A3004 RMK A01 T01740086  RH  056%=      5-min Rain = 0
KCO3 091636Z 02012KT 17/09 A3004 RMK A01 T01740086  RH  056%=      5-min Rain = 0
KCO3 091637Z 02012G17KT 17/09 A3004 RMK A01 T01730086  RH  057%=      5-min Rain = 0
KCO3 091638Z 03011KT 17/09 A3004 RMK A01 T01730085  RH  056%=      5-min Rain = 0
KCO3 091639Z 05010KT 17/09 A3004 RMK A01 T01720085  RH  056%=      5-min Rain = 0
KCO3 091640Z 04010KT 17/09 A3004 RMK A01 T01730085  RH  056%=      5-min Rain = 0
KCO3 091641Z 03011G16KT 17/09 A3004 RMK A01 T01730087  RH  057%=      5-min Rain = 0
KCO3 091642Z 04012KT 17/09 A3004 RMK A01 T01740087  RH  057%=      5-min Rain = 0
KCO3 091643Z 05011KT 18/09 A3004 RMK A01 T01750087  RH  057%=      5-min Rain = 0
KCO3 091644Z 05012G19KT 17/09 A3004 RMK A01 T01740087  RH  056%=      5-min Rain = 0
KCO3 091645Z 03015KT 17/09 A3004 RMK A01 T01740086  RH  056%=      5-min Rain = 0
KCO3 091646Z 02013KT 17/09 A3004 RMK A01 T01730087  RH  057%=      5-min Rain = 0
KCO3 091647Z 03011G17KT 17/09 A3004 RMK A01 T01730088  RH  057%=      5-min Rain = 0
KCO3 091648Z 02014KT 17/09 A3004 RMK A01 T01730086  RH  057%=      5-min Rain = 0
KCO3 091649Z 02011KT 17/09 A3004 RMK A01 T01720086  RH  057%=      5-min Rain = 0
KCO3 091650Z 02012G17KT 17/09 A3004 RMK A01 T01720088  RH  058%=      5-min Rain = 0
KCO3 091651Z 02013G18KT 17/09 A3004 RMK A01 T01720086  RH  057%=      5-min Rain = 0
KCO3 091652Z 03011KT 17/09 A3004 RMK A01 T01720086  RH  057%=      5-min Rain = 0
KCO3 091653Z 01012G18KT 17/09 A3004 RMK A01 T01720089  RH  058%=      5-min Rain = 0
KCO3 091654Z 04010G17KT 17/09 A3004 RMK A01 T01740089  RH  057%=      5-min Rain = 0
KCO3 091655Z 04012G17KT 17/09 A3004 RMK A01 T01740086  RH  056%=      5-min Rain = 0
KCO3 091656Z 05010KT 17/09 A3004 RMK A01 T01740088  RH  057%=      5-min Rain = 0
KCO3 091657Z 05010G15KT 17/09 A3004 RMK A01 T01740088  RH  057%=      5-min Rain = 0
KCO3 091658Z 05010KT 17/09 A3004 RMK A01 T01740088  RH  057%=      5-min Rain = 0
KCO3 091659Z 03013KT 17/09 A3004 RMK A01 T01740087  RH  057%=      5-min Rain = 0
KCO3 091700Z 02013KT 17/09 A3004 RMK A01 T01730086  RH  056%=      5-min Rain = 0
KCO3 091701Z 02012KT 17/09 A3004 RMK A01 T01720086  RH  057%=      5-min Rain = 0
KCO3 091702Z 01011G18KT 17/09 A3004 RMK A01 T01710088  RH  058%=      5-min Rain = 0
KCO3 091703Z 02013KT 17/09 A3004 RMK A01 T01720089  RH  058%=      5-min Rain = 0
KCO3 091704Z 02011G16KT 17/09 A3003 RMK A01 T01730087  RH  057%=      5-min Rain = 0
KCO3 091705Z 03012G17KT 17/09 A3003 RMK A01 T01720089  RH  058%=      5-min Rain = 0
KCO3 091706Z 02013KT 17/09 A3003 RMK A01 T01720086  RH  057%=      5-min Rain = 0
KCO3 091707Z 02010KT 17/09 A3003 RMK A01 T01710087  RH  058%=      5-min Rain = 0
KCO3 091708Z 02010KT 17/09 A3003 RMK A01 T01710089  RH  059%=      5-min Rain = 0
KCO3 091709Z 04008KT 17/09 A3003 RMK A01 T01720088  RH  058%=      5-min Rain = 0
KCO3 091710Z 04010KT 17/09 A3003 RMK A01 T01720087  RH  057%=      5-min Rain = 0
KCO3 091711Z 04010KT 17/09 A3003 RMK A01 T01710087  RH  058%=      5-min Rain = 0
KCO3 091712Z 03011KT 17/09 A3003 RMK A01 T01710088  RH  058%=      5-min Rain = 0
KCO3 091713Z 02011KT 17/09 A3003 RMK A01 T01710086  RH  057%=      5-min Rain = 0
KCO3 091714Z 03008KT 17/09 A3003 RMK A01 T01700087  RH  058%=      5-min Rain = 0
KCO3 091715Z 02010KT 17/09 A3003 RMK A01 T01700087  RH  058%=      5-min Rain = 0
KCO3 091716Z 02013KT 17/09 A3003 RMK A01 T01700087  RH  058%=      5-min Rain = 0
KCO3 091717Z 02010KT 17/09 A3003 RMK A01 T01700087  RH  058%=      5-min Rain = 0
KCO3 091718Z 02011KT 17/09 A3003 RMK A01 T01700087  RH  058%=      5-min Rain = 0
KCO3 091719Z 02009KT 17/09 A3003 RMK A01 T01700086  RH  058%=      5-min Rain = 0
KCO3 091720Z 03008G13KT 17/09 A3003 RMK A01 T01710088  RH  058%=      5-min Rain = 0
KCO3 091721Z 03010KT 17/09 A3003 RMK A01 T01720088  RH  058%=      5-min Rain = 0
KCO3 091722Z 03009KT 17/09 A3003 RMK A01 T01720088  RH  058%=      5-min Rain = 0
KCO3 091723Z 03009KT 17/09 A3003 RMK A01 T01710089  RH  058%=      5-min Rain = 0
KCO3 091724Z 03009KT 17/09 A3003 RMK A01 T01720089  RH  058%=      5-min Rain = 0
KCO3 091725Z 03010KT 17/09 A3003 RMK A01 T01720088  RH  058%=      5-min Rain = 0
KCO3 091726Z 03006KT 17/09 A3003 RMK A01 T01730091  RH  059%=      5-min Rain = 0
KCO3 091727Z 01009KT 17/09 A3003 RMK A01 T01730089  RH  058%=      5-min Rain = 0
KCO3 091728Z 02011KT 17/09 A3003 RMK A01 T01730090  RH  058%=      5-min Rain = 0
KCO3 091729Z 01010KT 17/09 A3003 RMK A01 T01730089  RH  058%=      5-min Rain = 0
KCO3 091730Z 01011KT 17/09 A3003 RMK A01 T01720089  RH  058%=      5-min Rain = 0
KCO3 091731Z 01009KT 17/09 A3003 RMK A01 T01720089  RH  058%=      5-min Rain = 0
KCO3 091732Z 01011KT 17/09 A3003 RMK A01 T01730091  RH  058%=      5-min Rain = 0
KCO3 091733Z 04008KT 17/09 A3003 RMK A01 T01740089  RH  058%=      5-min Rain = 0
KCO3 091734Z 05007KT 17/09 A3003 RMK A01 T01740088  RH  057%=      5-min Rain = 0
KCO3 091735Z 06010KT 18/09 A3003 RMK A01 T01750091  RH  058%=      5-min Rain = 0
KCO3 091736Z 05007KT 18/09 A3003 RMK A01 T01750090  RH  057%=      5-min Rain = 0
KCO3 091737Z 04009G14KT 18/09 A3003 RMK A01 T01760090  RH  057%=      5-min Rain = 0
KCO3 091738Z 04009KT 18/09 A3003 RMK A01 T01760090  RH  057%=      5-min Rain = 0
KCO3 091739Z 07010KT 18/09 A3003 RMK A01 T01770091  RH  057%=      5-min Rain = 0
KCO3 091740Z 07009KT 18/09 A3003 RMK A01 T01780093  RH  057%=      5-min Rain = 0
KCO3 091741Z 04006KT 18/09 A3003 RMK A01 T01790092  RH  057%=      5-min Rain = 0
KCO3 091742Z 04007KT 18/09 A3003 RMK A01 T01800092  RH  056%=      5-min Rain = 0
KCO3 091743Z 04009G16KT 18/09 A3003 RMK A01 T01820094  RH  057%=      5-min Rain = 0
KCO3 091744Z 04011KT 18/09 A3003 RMK A01 T01830091  RH  055%=      5-min Rain = 0
KCO3 091745Z 05011KT 18/09 A3003 RMK A01 T01810089  RH  055%=      5-min Rain = 0
KCO3 091746Z 04009KT 18/09 A3003 RMK A01 T01790090  RH  056%=      5-min Rain = 0
KCO3 091747Z 04008KT 18/09 A3003 RMK A01 T01790090  RH  056%=      5-min Rain = 0
KCO3 091748Z 03009KT 18/09 A3003 RMK A01 T01810093  RH  056%=      5-min Rain = 0
KCO3 091749Z 03008KT 18/09 A3003 RMK A01 T01830093  RH  056%=      5-min Rain = 0
KCO3 091750Z 04011KT 18/09 A3003 RMK A01 T01840089  RH  054%=      5-min Rain = 0
KCO3 091751Z 05010G15KT 18/09 A3003 RMK A01 T01810091  RH  055%=      5-min Rain = 0
KCO3 091752Z 06009KT 18/09 A3003 RMK A01 T01810091  RH  056%=      5-min Rain = 0
KCO3 091753Z 04011KT 18/09 A3003 RMK A01 T01820093  RH  056%=      5-min Rain = 0
KCO3 091754Z 03010KT 18/09 A3003 RMK A01 T01840091  RH  055%=      5-min Rain = 0
KCO3 091755Z 04010KT 19/09 A3003 RMK A01 T01850089  RH  054%=      5-min Rain = 0
KCO3 091756Z 04010KT 18/09 A3003 RMK A01 T01830088  RH  054%=      5-min Rain = 0
KCO3 091757Z 06011KT 18/09 A3003 RMK A01 T01810088  RH  054%=      5-min Rain = 0
KCO3 091758Z 06011KT 18/09 A3003 RMK A01 T01810090  RH  055%=      5-min Rain = 0
KCO3 091759Z 06011KT 18/09 A3003 RMK A01 T01820090  RH  055%=      5-min Rain = 0
KCO3 091800Z 05009G16KT 18/09 A3003 RMK A01 T01820091  RH  055%=      5-min Rain = 0
KCO3 091801Z 03008KT 18/09 A3003 RMK A01 T01840093  RH  055%=      5-min Rain = 0
KCO3 091802Z 02010KT 19/09 A3003 RMK A01 T01860093  RH  055%=      5-min Rain = 0
KCO3 091803Z 02012G17KT 19/09 A3003 RMK A01 T01860090  RH  053%=      5-min Rain = 0
KCO3 091804Z 04011KT 19/09 A3003 RMK A01 T01850091  RH  054%=      5-min Rain = 0
KCO3 091805Z 04009KT 19/09 A3003 RMK A01 T01850090  RH  054%=      5-min Rain = 0
KCO3 091806Z 05008KT 19/09 A3003 RMK A01 T01850089  RH  054%=      5-min Rain = 0
KCO3 091807Z 07012KT 19/09 A3003 RMK A01 T01850094  RH  055%=      5-min Rain = 0
KCO3 091808Z 06009KT 19/09 A3003 RMK A01 T01870088  RH  053%=      5-min Rain = 0
KCO3 091809Z 04006KT 18/09 A3003 RMK A01 T01840090  RH  054%=      5-min Rain = 0
KCO3 091810Z 06009KT 19/09 A3002 RMK A01 T01850092  RH  055%=      5-min Rain = 0
KCO3 091811Z 07008G13KT 19/09 A3002 RMK A01 T01860093  RH  055%=      5-min Rain = 0
KCO3 091812Z 06009KT 19/10 A3002 RMK A01 T01880096  RH  055%=      5-min Rain = 0
KCO3 091813Z 03009G14KT 19/09 A3002 RMK A01 T01900094  RH  054%=      5-min Rain = 0
KCO3 091814Z 04011G17KT 19/09 A3002 RMK A01 T01910091  RH  052%=      5-min Rain = 0
KCO3 091815Z 03011KT 19/09 A3002 RMK A01 T01900091  RH  053%=      5-min Rain = 0
KCO3 091816Z 04011KT 19/09 A3002 RMK A01 T01870089  RH  053%=      5-min Rain = 0
KCO3 091817Z 04012KT 19/09 A3002 RMK A01 T01860088  RH  053%=      5-min Rain = 0
KCO3 091818Z 04010KT 18/09 A3002 RMK A01 T01840088  RH  053%=      5-min Rain = 0
KCO3 091819Z 05008G13KT 18/09 A3002 RMK A01 T01830088  RH  054%=      5-min Rain = 0
KCO3 091820Z 05006KT 18/09 A3002 RMK A01 T01830091  RH  055%=      5-min Rain = 0
KCO3 091821Z 05011G16KT 18/09 A3002 RMK A01 T01840091  RH  054%=      5-min Rain = 0
KCO3 091822Z 05006KT 19/09 A3002 RMK A01 T01880091  RH  053%=      5-min Rain = 0
KCO3 091823Z 06010KT 19/09 A3002 RMK A01 T01900092  RH  053%=      5-min Rain = 0
KCO3 091824Z 05014KT 19/09 A3002 RMK A01 T01910089  RH  051%=      5-min Rain = 0
KCO3 091825Z 06013KT 19/09 A3002 RMK A01 T01880087  RH  052%=      5-min Rain = 0
KCO3 091826Z 06011G17KT 19/09 A3002 RMK A01 T01860088  RH  053%=      5-min Rain = 0
KCO3 091827Z 07010KT 19/09 A3002 RMK A01 T01860088  RH  053%=      5-min Rain = 0
KCO3 091828Z 08011KT 19/09 A3002 RMK A01 T01870089  RH  053%=      5-min Rain = 0
KCO3 091829Z 08012KT 19/09 A3002 RMK A01 T01880089  RH  053%=      5-min Rain = 0
KCO3 091830Z 06011KT 19/09 A3002 RMK A01 T01880089  RH  052%=      5-min Rain = 0
KCO3 091831Z 05009KT 19/09 A3002 RMK A01 T01870089  RH  053%=      5-min Rain = 0
KCO3 091832Z 05009KT 19/09 A3002 RMK A01 T01870089  RH  053%=      5-min Rain = 0
KCO3 091833Z 06010KT 19/09 A3002 RMK A01 T01860091  RH  054%=      5-min Rain = 0
KCO3 091834Z 07011G16KT 19/09 A3002 RMK A01 T01860092  RH  054%=      5-min Rain = 0
KCO3 091835Z 06012KT 19/09 A3002 RMK A01 T01870087  RH  052%=      5-min Rain = 0
KCO3 091836Z 05011KT 19/09 A3002 RMK A01 T01870086  RH  052%=      5-min Rain = 0
KCO3 091837Z 05010KT 19/09 A3002 RMK A01 T01850085  RH  052%=      5-min Rain = 0
KCO3 091838Z 08010KT 19/09 A3002 RMK A01 T01850089  RH  054%=      5-min Rain = 0
KCO3 091839Z 07011G16KT 19/09 A3002 RMK A01 T01870087  RH  052%=      5-min Rain = 0
KCO3 091840Z 07012KT 19/09 A3002 RMK A01 T01870086  RH  052%=      5-min Rain = 0
KCO3 091841Z 07010KT 19/09 A3002 RMK A01 T01860086  RH  052%=      5-min Rain = 0
KCO3 091842Z 05008KT 19/09 A3002 RMK A01 T01860087  RH  052%=      5-min Rain = 0
KCO3 091843Z 07010KT 19/09 A3002 RMK A01 T01850085  RH  052%=      5-min Rain = 0
KCO3 091844Z 07013KT 18/09 A3002 RMK A01 T01840088  RH  053%=      5-min Rain = 0
KCO3 091845Z 07012KT 18/09 A3002 RMK A01 T01840087  RH  053%=      5-min Rain = 0
KCO3 091846Z 07012KT 18/09 A3002 RMK A01 T01840090  RH  054%=      5-min Rain = 0
KCO3 091847Z 06011KT 19/09 A3002 RMK A01 T01860090  RH  054%=      5-min Rain = 0
KCO3 091848Z 06008KT 19/09 A3002 RMK A01 T01860088  RH  053%=      5-min Rain = 0
KCO3 091849Z 05010KT 18/09 A3002 RMK A01 T01840090  RH  054%=      5-min Rain = 0
KCO3 091850Z 04009KT 18/09 A3002 RMK A01 T01840087  RH  053%=      5-min Rain = 0
KCO3 091851Z 04008G13KT 18/09 A3002 RMK A01 T01830088  RH  054%=      5-min Rain = 0
KCO3 091852Z 04010KT 18/09 A3002 RMK A01 T01820085  RH  053%=      5-min Rain = 0
KCO3 091853Z 04007KT 18/09 A3002 RMK A01 T01820086  RH  053%=      5-min Rain = 0
KCO3 091854Z 06009KT 18/09 A3002 RMK A01 T01820088  RH  054%=      5-min Rain = 0
KCO3 091855Z 05009KT 18/09 A3002 RMK A01 T01830088  RH  054%=      5-min Rain = 0
KCO3 091856Z 04007KT 18/09 A3002 RMK A01 T01840086  RH  053%=      5-min Rain = 0
KCO3 091857Z 06010KT 18/09 A3002 RMK A01 T01830087  RH  053%=      5-min Rain = 0
KCO3 091858Z 06007KT 18/09 A3002 RMK A01 T01810085  RH  053%=      5-min Rain = 0
KCO3 091859Z 07007KT 18/09 A3002 RMK A01 T01800086  RH  054%=      5-min Rain = 0
KCO3 091900Z 07007KT 18/09 A3002 RMK A01 T01800087  RH  055%=      5-min Rain = 0
KCO3 091901Z 05010KT 18/09 A3002 RMK A01 T01800088  RH  055%=      5-min Rain = 0
KCO3 091902Z 04011KT 18/09 A3002 RMK A01 T01810085  RH  053%=      5-min Rain = 0
KCO3 091903Z 05008KT 18/09 A3002 RMK A01 T01800085  RH  054%=      5-min Rain = 0
KCO3 091904Z 05007KT 18/09 A3002 RMK A01 T01800088  RH  055%=      5-min Rain = 0
KCO3 091905Z 05009KT 18/09 A3002 RMK A01 T01810086  RH  054%=      5-min Rain = 0
KCO3 091906Z 04011KT 18/09 A3002 RMK A01 T01810087  RH  054%=      5-min Rain = 0
KCO3 091907Z 04011KT 18/09 A3002 RMK A01 T01800086  RH  054%=      5-min Rain = 0
KCO3 091908Z 05010G15KT 18/09 A3002 RMK A01 T01800086  RH  054%=      5-min Rain = 0
KCO3 091909Z 05009KT 18/09 A3002 RMK A01 T01790085  RH  054%=      5-min Rain = 0
KCO3 091910Z 05009KT 18/09 A3002 RMK A01 T01780085  RH  054%=      5-min Rain = 0
KCO3 091911Z 05008KT 18/09 A3002 RMK A01 T01780085  RH  055%=      5-min Rain = 0
KCO3 091912Z 06008KT 18/09 A3002 RMK A01 T01780087  RH  055%=      5-min Rain = 0
KCO3 091913Z 06010KT 18/09 A3002 RMK A01 T01800090  RH  056%=      5-min Rain = 0
KCO3 091914Z 05009KT 18/09 A3002 RMK A01 T01810088  RH  055%=      5-min Rain = 0
KCO3 091915Z 06011KT 18/09 A3002 RMK A01 T01810087  RH  054%=      5-min Rain = 0
KCO3 091916Z 04010KT 18/09 A3001 RMK A01 T01820088  RH  054%=      5-min Rain = 0
KCO3 091917Z 05010KT 18/09 A3002 RMK A01 T01820086  RH  053%=      5-min Rain = 0
KCO3 091918Z 04009KT 18/09 A3002 RMK A01 T01820086  RH  053%=      5-min Rain = 0
KCO3 091919Z 05009KT 18/09 A3002 RMK A01 T01820085  RH  053%=      5-min Rain = 0
KCO3 091920Z 04008KT 18/09 A3002 RMK A01 T01820086  RH  053%=      5-min Rain = 0
KCO3 091921Z 05007KT 18/08 A3001 RMK A01 T01810083  RH  052%=      5-min Rain = 0
KCO3 091922Z 06007KT 18/09 A3001 RMK A01 T01810088  RH  055%=      5-min Rain = 0
KCO3 091923Z 05008KT 18/09 A3001 RMK A01 T01820089  RH  055%=      5-min Rain = 0
KCO3 091924Z 04008KT 18/09 A3001 RMK A01 T01830087  RH  053%=      5-min Rain = 0
KCO3 091925Z 04010KT 18/09 A3001 RMK A01 T01830088  RH  054%=      5-min Rain = 0
KCO3 091926Z 04010KT 18/09 A3001 RMK A01 T01840088  RH  053%=      5-min Rain = 0
KCO3 091927Z 04009KT 19/09 A3001 RMK A01 T01850087  RH  053%=      5-min Rain = 0
KCO3 091928Z 05011KT 18/09 A3001 RMK A01 T01840086  RH  053%=      5-min Rain = 0
KCO3 091929Z 06008KT 18/09 A3001 RMK A01 T01830087  RH  054%=      5-min Rain = 0
KCO3 091930Z 05008KT 18/09 A3001 RMK A01 T01820089  RH  054%=      5-min Rain = 0
KCO3 091931Z 03007KT 18/09 A3001 RMK A01 T01830086  RH  053%=      5-min Rain = 0
KCO3 091932Z 04007KT 18/09 A3001 RMK A01 T01830088  RH  054%=      5-min Rain = 0
KCO3 091933Z 05005KT 18/08 A3001 RMK A01 T01830084  RH  052%=      5-min Rain = 0
KCO3 091934Z 05007KT 18/09 A3001 RMK A01 T01820088  RH  054%=      5-min Rain = 0
KCO3 091935Z 03010KT 18/09 A3001 RMK A01 T01830088  RH  054%=      5-min Rain = 0
KCO3 091936Z 01010KT 18/08 A3001 RMK A01 T01840084  RH  052%=      5-min Rain = 0
KCO3 091937Z 01009KT 18/08 A3001 RMK A01 T01830083  RH  052%=      5-min Rain = 0
KCO3 091938Z 03007KT 18/08 A3001 RMK A01 T01820084  RH  053%=      5-min Rain = 0
KCO3 091939Z 04007KT 18/09 A3001 RMK A01 T01820085  RH  053%=      5-min Rain = 0
KCO3 091940Z 04006KT 18/09 A3001 RMK A01 T01830088  RH  054%=      5-min Rain = 0
KCO3 091941Z 04008KT 19/09 A3001 RMK A01 T01850087  RH  053%=      5-min Rain = 0
KCO3 091942Z 05006KT 19/09 A3001 RMK A01 T01850086  RH  052%=      5-min Rain = 0
KCO3 091943Z 05005G10KT 18/09 A3001 RMK A01 T01840089  RH  054%=      5-min Rain = 0
KCO3 091944Z 04008KT 19/09 A3001 RMK A01 T01860090  RH  053%=      5-min Rain = 0
KCO3 091945Z 03007KT 19/09 A3002 RMK A01 T01870087  RH  052%=      5-min Rain = 0
KCO3 091946Z 05008KT 19/09 A3001 RMK A01 T01860088  RH  053%=      5-min Rain = 0
KCO3 091947Z 06005KT 19/09 A3001 RMK A01 T01860089  RH  053%=      5-min Rain = 0
KCO3 091948Z 08007KT 19/09 A3002 RMK A01 T01870091  RH  054%=      5-min Rain = 0
KCO3 091949Z 08006KT 19/09 A3002 RMK A01 T01870088  RH  052%=      5-min Rain = 0
KCO3 091950Z 05006KT 19/09 A3002 RMK A01 T01860087  RH  052%=      5-min Rain = 0
KCO3 091951Z 01008KT 19/09 A3001 RMK A01 T01860086  RH  052%=      5-min Rain = 0
KCO3 091952Z 02010KT 19/09 A3001 RMK A01 T01860085  RH  052%=      5-min Rain = 0
KCO3 091953Z 02009KT 19/09 A3001 RMK A01 T01860086  RH  052%=      5-min Rain = 0
KCO3 091954Z 02009KT 19/08 A3001 RMK A01 T01870084  RH  051%=      5-min Rain = 0
KCO3 091955Z 02008KT 19/09 A3001 RMK A01 T01860085  RH  052%=      5-min Rain = 0
KCO3 091956Z 02006KT 19/08 A3001 RMK A01 T01860084  RH  052%=      5-min Rain = 0
KCO3 091957Z 03006KT 19/09 A3001 RMK A01 T01860085  RH  052%=      5-min Rain = 0
KCO3 091958Z 02007KT 19/09 A3001 RMK A01 T01860085  RH  052%=      5-min Rain = 0
KCO3 091959Z 04006KT 19/09 A3001 RMK A01 T01860086  RH  052%=      5-min Rain = 0
KCO3 092000Z 36008KT 19/09 A3002 RMK A01 T01860088  RH  053%=      5-min Rain = 0
KCO3 092001Z 01005KT 19/09 A3002 RMK A01 T01880089  RH  052%=      5-min Rain = 0
KCO3 092002Z 35004KT 19/09 A3002 RMK A01 T01890086  RH  051%=      5-min Rain = 0
KCO3 092003Z 36005KT 19/09 A3001 RMK A01 T01880087  RH  052%=      5-min Rain = 0
KCO3 092004Z 01005KT 19/09 A3001 RMK A01 T01880087  RH  052%=      5-min Rain = 0
KCO3 092005Z 04006KT 19/09 A3001 RMK A01 T01880089  RH  052%=      5-min Rain = 0
KCO3 092006Z 02005KT 19/09 A3001 RMK A01 T01880086  RH  052%=      5-min Rain = 0
KCO3 092007Z 02006KT 19/09 A3001 RMK A01 T01880086  RH  051%=      5-min Rain = 0
KCO3 092008Z 01004KT 19/09 A3001 RMK A01 T01880087  RH  052%=      5-min Rain = 0
KCO3 092009Z 00005KT 19/09 A3001 RMK A01 T01870087  RH  052%=      5-min Rain = 0
KCO3 092010Z 01006G11KT 19/09 A3001 RMK A01 T01880088  RH  052%=      5-min Rain = 0
KCO3 092011Z 02007KT 19/09 A3001 RMK A01 T01890089  RH  052%=      5-min Rain = 0
KCO3 092012Z 03005G10KT 19/09 A3001 RMK A01 T01900086  RH  051%=      5-min Rain = 0
KCO3 092013Z 05004KT 19/09 A3001 RMK A01 T01890085  RH  051%=      5-min Rain = 0
KCO3 092014Z 01004KT 19/09 A3001 RMK A01 T01880087  RH  052%=      5-min Rain = 0
KCO3 092015Z 00006KT 19/09 A3001 RMK A01 T01880090  RH  053%=      5-min Rain = 0
KCO3 092016Z 35008KT 19/09 A3001 RMK A01 T01900087  RH  051%=      5-min Rain = 0
KCO3 092017Z 35006KT 19/09 A3001 RMK A01 T01900087  RH  051%=      5-min Rain = 0
KCO3 092018Z 35005KT 19/09 A3001 RMK A01 T01890088  RH  052%=      5-min Rain = 0
KCO3 092019Z 01005KT 19/09 A3001 RMK A01 T01900089  RH  052%=      5-min Rain = 0
KCO3 092020Z 03005KT 19/09 A3001 RMK A01 T01910086  RH  050%=      5-min Rain = 0
KCO3 092021Z 05005KT 19/09 A30 RMK A01 T01910087  RH  051%=      5-min Rain = 0
KCO3 092022Z 06006KT 19/09 A30 RMK A01 T01910086  RH  051%=      5-min Rain = 0
KCO3 092023Z 04006KT 19/09 A30 RMK A01 T01910086  RH  050%=      5-min Rain = 0
KCO3 092024Z 04006KT 19/09 A30 RMK A01 T01910085  RH  050%=      5-min Rain = 0
KCO3 092025Z 03004KT 19/09 A30 RMK A01 T01910087  RH  051%=      5-min Rain = 0
KCO3 092026Z 00005KT 19/09 A30 RMK A01 T01910085  RH  050%=      5-min Rain = 0
KCO3 092027Z 02008KT 19/09 A30 RMK A01 T01920088  RH  051%=      5-min Rain = 0
KCO3 092028Z 01008KT 19/09 A30 RMK A01 T01930088  RH  051%=      5-min Rain = 0
KCO3 092029Z 01010KT 19/09 A30 RMK A01 T01920087  RH  050%=      5-min Rain = 0
KCO3 092030Z 01008KT 19/09 A30 RMK A01 T01920086  RH  050%=      5-min Rain = 0
KCO3 092031Z 01006KT 19/09 A2999 RMK A01 T01910086  RH  051%=      5-min Rain = 0
KCO3 092032Z 02005KT 19/09 A2999 RMK A01 T01910086  RH  051%=      5-min Rain = 0
KCO3 092033Z 01006KT 19/09 A2999 RMK A01 T01910089  RH  052%=      5-min Rain = 0
KCO3 092034Z 01008KT 19/09 A2999 RMK A01 T01920087  RH  051%=      5-min Rain = 0
KCO3 092035Z 01008KT 19/08 A2999 RMK A01 T01930084  RH  049%=      5-min Rain = 0
KCO3 092036Z 01006KT 19/09 A2999 RMK A01 T01920087  RH  051%=      5-min Rain = 0
KCO3 092037Z 00008KT 19/09 A2999 RMK A01 T01920087  RH  051%=      5-min Rain = 0
KCO3 092038Z 01007KT 19/09 A2999 RMK A01 T01930086  RH  050%=      5-min Rain = 0
KCO3 092039Z 02006KT 19/09 A2999 RMK A01 T01920086  RH  050%=      5-min Rain = 0
KCO3 092040Z 02006KT 19/09 A2999 RMK A01 T01920088  RH  051%=      5-min Rain = 0
KCO3 092041Z 02006KT 19/09 A2999 RMK A01 T01920086  RH  050%=      5-min Rain = 0
KCO3 092042Z 05005KT 19/09 A2999 RMK A01 T01930091  RH  052%=      5-min Rain = 0
KCO3 092043Z 05006KT 19/09 A2999 RMK A01 T01940089  RH  051%=      5-min Rain = 0
KCO3 092044Z 04007KT 19/09 A2999 RMK A01 T01940088  RH  050%=      5-min Rain = 0
KCO3 092045Z 05009KT 19/09 A2999 RMK A01 T01940087  RH  050%=      5-min Rain = 0
KCO3 092046Z 05009KT 19/09 A2999 RMK A01 T01940089  RH  050%=      5-min Rain = 0
KCO3 092047Z 06007KT 19/09 A2999 RMK A01 T01940088  RH  050%=      5-min Rain = 0
KCO3 092048Z 06006KT 19/09 A2999 RMK A01 T01940087  RH  050%=      5-min Rain = 0
KCO3 092049Z 07007KT 19/09 A2999 RMK A01 T01940091  RH  051%=      5-min Rain = 0
KCO3 092050Z 08007KT 19/09 A2999 RMK A01 T01940086  RH  049%=      5-min Rain = 0
KCO3 092051Z 03003KT 19/09 A2999 RMK A01 T01930089  RH  051%=      5-min Rain = 0
KCO3 092052Z 02007KT 19/09 A2999 RMK A01 T01940088  RH  050%=      5-min Rain = 0
KCO3 092053Z 02007KT 20/09 A2999 RMK A01 T01960089  RH  050%=      5-min Rain = 0
KCO3 092054Z 02005KT 20/09 A2999 RMK A01 T01960085  RH  049%=      5-min Rain = 0
KCO3 092055Z 36005G10KT 20/09 A2999 RMK A01 T01960090  RH  050%=      5-min Rain = 0
KCO3 092056Z 04008KT 20/09 A2999 RMK A01 T01960090  RH  050%=      5-min Rain = 0
KCO3 092057Z 04006KT 20/09 A2999 RMK A01 T01970087  RH  049%=      5-min Rain = 0
KCO3 092058Z 03004KT 20/08 A2999 RMK A01 T01950083  RH  048%=      5-min Rain = 0
KCO3 092059Z 04004KT 19/09 A2999 RMK A01 T01940085  RH  049%=      5-min Rain = 0
KCO3 092100Z 06005KT 19/09 A2999 RMK A01 T01930085  RH  049%=      5-min Rain = 0
KCO3 092101Z 06005KT 19/09 A2999 RMK A01 T01930087  RH  050%=      5-min Rain = 0
KCO3 092102Z 08007KT 19/09 A2998 RMK A01 T01940090  RH  051%=      5-min Rain = 0
KCO3 092103Z 07009KT 20/09 A2998 RMK A01 T01950089  RH  050%=      5-min Rain = 0
KCO3 092104Z 05008KT 20/09 A2998 RMK A01 T01960088  RH  050%=      5-min Rain = 0
KCO3 092105Z 05008KT 20/09 A2998 RMK A01 T01960087  RH  049%=      5-min Rain = 0
KCO3 092106Z 07005KT 20/09 A2998 RMK A01 T01960087  RH  049%=      5-min Rain = 0
KCO3 092107Z 06007KT 20/09 A2998 RMK A01 T01960092  RH  051%=      5-min Rain = 0
KCO3 092108Z 05009KT 20/09 A2998 RMK A01 T01960090  RH  050%=      5-min Rain = 0
KCO3 092109Z 04007KT 20/09 A2998 RMK A01 T01970088  RH  049%=      5-min Rain = 0
KCO3 092110Z 05006KT 20/09 A2998 RMK A01 T01970089  RH  050%=      5-min Rain = 0
KCO3 092111Z 05006KT 20/09 A2998 RMK A01 T01970089  RH  050%=      5-min Rain = 0
KCO3 092112Z 04006KT 20/09 A2998 RMK A01 T01970088  RH  049%=      5-min Rain = 0
KCO3 092113Z 04006KT 20/09 A2998 RMK A01 T01960086  RH  049%=      5-min Rain = 0
KCO3 092114Z 06006KT 20/09 A2998 RMK A01 T01950086  RH  049%=      5-min Rain = 0
KCO3 092115Z 06007KT 20/09 A2997 RMK A01 T01950087  RH  050%=      5-min Rain = 0
KCO3 092116Z 06006KT 20/09 A2997 RMK A01 T01950087  RH  050%=      5-min Rain = 0
KCO3 092117Z 08008KT 20/09 A2997 RMK A01 T01950089  RH  050%=      5-min Rain = 0
KCO3 092118Z 06005KT 20/09 A2997 RMK A01 T01970089  RH  050%=      5-min Rain = 0
KCO3 092119Z 06005KT 20/09 A2997 RMK A01 T01970089  RH  049%=      5-min Rain = 0
KCO3 092120Z 05005KT 20/09 A2997 RMK A01 T01980089  RH  049%=      5-min Rain = 0
KCO3 092121Z 07006KT 20/09 A2997 RMK A01 T01980085  RH  048%=      5-min Rain = 0
KCO3 092122Z 06009KT 20/09 A2997 RMK A01 T01980086  RH  048%=      5-min Rain = 0
KCO3 092123Z 06007KT 20/08 A2997 RMK A01 T01980084  RH  048%=      5-min Rain = 0
KCO3 092124Z 05006KT 20/08 A2997 RMK A01 T01970084  RH  048%=      5-min Rain = 0
KCO3 092125Z 05006KT 20/09 A2997 RMK A01 T01970086  RH  048%=      5-min Rain = 0
KCO3 092126Z 07010KT 20/09 A2997 RMK A01 T01970085  RH  048%=      5-min Rain = 0
KCO3 092127Z 07010KT 20/08 A2997 RMK A01 T01980082  RH  047%=      5-min Rain = 0
KCO3 092128Z 07008KT 20/08 A2997 RMK A01 T01970082  RH  047%=      5-min Rain = 0
KCO3 092129Z 07008KT 20/08 A2998 RMK A01 T01970084  RH  048%=      5-min Rain = 0
KCO3 092130Z 06006KT 20/09 A2998 RMK A01 T01970086  RH  049%=      5-min Rain = 0
KCO3 092131Z 05008KT 20/08 A2998 RMK A01 T01970083  RH  048%=      5-min Rain = 0
KCO3 092132Z 08008KT 20/08 A2998 RMK A01 T01970083  RH  047%=      5-min Rain = 0
KCO3 092133Z 08007KT 20/08 A2998 RMK A01 T01970083  RH  048%=      5-min Rain = 0
KCO3 092134Z 06007KT 20/08 A2998 RMK A01 T01970081  RH  047%=      5-min Rain = 0
KCO3 092135Z 06007KT 20/08 A2998 RMK A01 T01970081  RH  047%=      5-min Rain = 0
KCO3 092136Z 06006KT 20/08 A2998 RMK A01 T01960081  RH  047%=      5-min Rain = 0
KCO3 092137Z 07006KT 20/08 A2998 RMK A01 T01960081  RH  047%=      5-min Rain = 0
KCO3 092138Z 06004KT 20/08 A2998 RMK A01 T01960084  RH  048%=      5-min Rain = 0
KCO3 092139Z 05006G11KT 20/08 A2998 RMK A01 T01970082  RH  048%=      5-min Rain = 0
KCO3 092140Z 06008KT 20/08 A2998 RMK A01 T01970081  RH  047%=      5-min Rain = 0
KCO3 092141Z 06008KT 20/08 A2998 RMK A01 T01970081  RH  047%=      5-min Rain = 0
KCO3 092142Z 06008KT 20/08 A2998 RMK A01 T01970083  RH  048%=      5-min Rain = 0
KCO3 092143Z 07007KT 20/08 A2998 RMK A01 T01970084  RH  048%=      5-min Rain = 0
KCO3 092144Z 06005KT 20/09 A2997 RMK A01 T01970085  RH  048%=      5-min Rain = 0
KCO3 092145Z 07007KT 20/08 A2997 RMK A01 T01980084  RH  048%=      5-min Rain = 0
KCO3 092146Z 05009KT 20/08 A2997 RMK A01 T01980083  RH  047%=      5-min Rain = 0
KCO3 092147Z 05009KT 20/08 A2997 RMK A01 T01980081  RH  047%=      5-min Rain = 0
KCO3 092148Z 05007KT 20/08 A2997 RMK A01 T01980081  RH  047%=      5-min Rain = 0
KCO3 092149Z 07008KT 20/08 A2997 RMK A01 T01980082  RH  047%=      5-min Rain = 0
KCO3 092150Z 07008KT 20/08 A2997 RMK A01 T01980081  RH  047%=      5-min Rain = 0
KCO3 092151Z 05007KT 20/08 A2997 RMK A01 T01980083  RH  047%=      5-min Rain = 0
KCO3 092152Z 05007KT 20/08 A2997 RMK A01 T01980081  RH  047%=      5-min Rain = 0
KCO3 092153Z 06008KT 20/08 A2997 RMK A01 T01980079  RH  046%=      5-min Rain = 0
KCO3 092154Z 05007KT 20/08 A2997 RMK A01 T01980082  RH  047%=      5-min Rain = 0
KCO3 092155Z 05009KT 20/08 A2997 RMK A01 T01980081  RH  047%=      5-min Rain = 0
KCO3 092156Z 05010KT 20/08 A2997 RMK A01 T01980080  RH  046%=      5-min Rain = 0
KCO3 092157Z 06009KT 20/08 A2997 RMK A01 T01980081  RH  047%=      5-min Rain = 0
KCO3 092158Z 05008KT 20/08 A2997 RMK A01 T01980081  RH  047%=      5-min Rain = 0
KCO3 092159Z 06009KT 20/08 A2997 RMK A01 T01980080  RH  046%=      5-min Rain = 0
KCO3 092200Z 06009KT 20/08 A2997 RMK A01 T01980079  RH  046%=      5-min Rain = 0
KCO3 092201Z 06009KT 20/08 A2997 RMK A01 T01980079  RH  046%=      5-min Rain = 0
KCO3 092202Z 06008KT 20/08 A2997 RMK A01 T01980078  RH  046%=      5-min Rain = 0
KCO3 092203Z 07007KT 20/08 A2997 RMK A01 T01980078  RH  046%=      5-min Rain = 0
KCO3 092204Z 07007KT 20/08 A2997 RMK A01 T01980076  RH  045%=      5-min Rain = 0
KCO3 092205Z 08006KT 20/08 A2997 RMK A01 T01980079  RH  046%=      5-min Rain = 0
KCO3 092206Z 09008KT 20/08 A2997 RMK A01 T01990081  RH  047%=      5-min Rain = 0
KCO3 092207Z 08009KT 20/08 A2997 RMK A01 T01990082  RH  047%=      5-min Rain = 0
KCO3 092208Z 07011KT 20/08 A2997 RMK A01 T02000080  RH  046%=      5-min Rain = 0
KCO3 092209Z 06011KT 20/08 A2997 RMK A01 T02000079  RH  046%=      5-min Rain = 0
KCO3 092210Z 07008KT 20/08 A2997 RMK A01 T01990079  RH  046%=      5-min Rain = 0
KCO3 092211Z 06007KT 20/08 A2997 RMK A01 T01990081  RH  047%=      5-min Rain = 0
KCO3 092212Z 06006KT 20/08 A2997 RMK A01 T01990082  RH  047%=      5-min Rain = 0
KCO3 092213Z 05006KT 20/08 A2997 RMK A01 T01990082  RH  047%=      5-min Rain = 0
KCO3 092214Z 06007KT 20/08 A2997 RMK A01 T02000081  RH  046%=      5-min Rain = 0
KCO3 092215Z 05007KT 20/08 A2997 RMK A01 T02000082  RH  047%=      5-min Rain = 0
KCO3 092216Z 06007KT 20/08 A2997 RMK A01 T02000081  RH  046%=      5-min Rain = 0
KCO3 092217Z 06007KT 20/08 A2997 RMK A01 T02000083  RH  047%=      5-min Rain = 0
KCO3 092218Z 07007KT 20/08 A2997 RMK A01 T02000084  RH  047%=      5-min Rain = 0
KCO3 092219Z 07009KT 20/08 A2997 RMK A01 T02000084  RH  047%=      5-min Rain = 0
KCO3 092220Z 07008KT 20/08 A2997 RMK A01 T01990083  RH  047%=      5-min Rain = 0
KCO3 092221Z 06008KT 20/08 A2997 RMK A01 T01990083  RH  047%=      5-min Rain = 0
KCO3 092222Z 06008KT 20/08 A2996 RMK A01 T01980083  RH  047%=      5-min Rain = 0
KCO3 092223Z 07005KT 20/09 A2997 RMK A01 T01980085  RH  048%=      5-min Rain = 0
KCO3 092224Z 06007KT 20/09 A2997 RMK A01 T01980085  RH  048%=      5-min Rain = 0
KCO3 092225Z 06009KT 20/08 A2997 RMK A01 T01980084  RH  048%=      5-min Rain = 0
KCO3 092226Z 07010KT 20/08 A2997 RMK A01 T01980082  RH  047%=      5-min Rain = 0
KCO3 092227Z 07009KT 20/08 A2997 RMK A01 T01980080  RH  047%=      5-min Rain = 0
KCO3 092228Z 05007KT 20/08 A2997 RMK A01 T01970081  RH  047%=      5-min Rain = 0
KCO3 092229Z 04009KT 20/08 A2997 RMK A01 T01970080  RH  047%=      5-min Rain = 0
KCO3 092230Z 06008KT 20/08 A2997 RMK A01 T01970080  RH  047%=      5-min Rain = 0
KCO3 092231Z 05008KT 20/08 A2997 RMK A01 T01980081  RH  047%=      5-min Rain = 0
KCO3 092232Z 06008KT 20/08 A2997 RMK A01 T01980081  RH  047%=      5-min Rain = 0
KCO3 092233Z 07007KT 20/08 A2996 RMK A01 T01980083  RH  047%=      5-min Rain = 0
KCO3 092234Z 07010KT 20/08 A2996 RMK A01 T01980084  RH  048%=      5-min Rain = 0
KCO3 092235Z 07009KT 20/08 A2996 RMK A01 T01980082  RH  047%=      5-min Rain = 0
KCO3 092236Z 07011KT 20/08 A2996 RMK A01 T01980084  RH  048%=      5-min Rain = 0
KCO3 092237Z 07010KT 20/08 A2996 RMK A01 T01980081  RH  047%=      5-min Rain = 0
KCO3 092238Z 07008KT 20/08 A2996 RMK A01 T01980083  RH  048%=      5-min Rain = 0
KCO3 092239Z 06007KT 20/08 A2996 RMK A01 T01970084  RH  048%=      5-min Rain = 0
KCO3 092240Z 06008KT 20/08 A2996 RMK A01 T01980084  RH  048%=      5-min Rain = 0
KCO3 092241Z 07010KT 20/08 A2996 RMK A01 T01980084  RH  048%=      5-min Rain = 0
KCO3 092242Z 07010KT 20/08 A2996 RMK A01 T01970083  RH  048%=      5-min Rain = 0
KCO3 092243Z 08010KT 20/08 A2996 RMK A01 T01970083  RH  048%=      5-min Rain = 0
KCO3 092244Z 08010KT 20/08 A2996 RMK A01 T01970084  RH  048%=      5-min Rain = 0
KCO3 092245Z 08008KT 20/09 A2996 RMK A01 T01970086  RH  049%=      5-min Rain = 0
KCO3 092246Z 07008KT 20/09 A2996 RMK A01 T01970085  RH  048%=      5-min Rain = 0
KCO3 092247Z 07008KT 20/08 A2996 RMK A01 T01970083  RH  048%=      5-min Rain = 0
KCO3 092248Z 06009KT 20/08 A2996 RMK A01 T01970084  RH  048%=      5-min Rain = 0
KCO3 092249Z 06007KT 20/08 A2996 RMK A01 T01960084  RH  048%=      5-min Rain = 0
KCO3 092250Z 08004KT 20/09 A2996 RMK A01 T01960086  RH  049%=      5-min Rain = 0
KCO3 092251Z 06005KT 20/09 A2996 RMK A01 T01960087  RH  050%=      5-min Rain = 0
KCO3 092252Z 06007KT 20/09 A2996 RMK A01 T01960087  RH  049%=      5-min Rain = 0
KCO3 092253Z 06008KT 20/08 A2996 RMK A01 T01960084  RH  048%=      5-min Rain = 0
KCO3 092254Z 07007KT 20/08 A2996 RMK A01 T01960084  RH  048%=      5-min Rain = 0
KCO3 092255Z 07007KT 20/09 A2996 RMK A01 T01960086  RH  049%=      5-min Rain = 0
KCO3 092256Z 07007KT 20/08 A2996 RMK A01 T01970084  RH  048%=      5-min Rain = 0
KCO3 092257Z 07009KT 20/09 A2996 RMK A01 T01970085  RH  048%=      5-min Rain = 0
KCO3 092258Z 07007KT 20/09 A2996 RMK A01 T01970086  RH  049%=      5-min Rain = 0
KCO3 092259Z 07007KT 20/09 A2996 RMK A01 T01980085  RH  048%=      5-min Rain = 0
KCO3 092300Z 07007KT 20/09 A2996 RMK A01 T01980085  RH  048%=      5-min Rain = 0
KCO3 092301Z 07008KT 20/08 A2996 RMK A01 T01970083  RH  048%=      5-min Rain = 0
KCO3 092302Z 06008KT 20/08 A2996 RMK A01 T01970084  RH  048%=      5-min Rain = 0
KCO3 092303Z 06009KT 20/08 A2996 RMK A01 T01970084  RH  048%=      5-min Rain = 0
KCO3 092304Z 07007KT 20/09 A2996 RMK A01 T01970085  RH  048%=      5-min Rain = 0
KCO3 092305Z 07007KT 20/09 A2996 RMK A01 T01970086  RH  049%=      5-min Rain = 0
KCO3 092306Z 07007KT 20/08 A2996 RMK A01 T01970084  RH  048%=      5-min Rain = 0
KCO3 092307Z 06008KT 20/08 A2996 RMK A01 T01970084  RH  048%=      5-min Rain = 0
KCO3 092308Z 06007KT 20/08 A2996 RMK A01 T01970083  RH  048%=      5-min Rain = 0
KCO3 092309Z 06007KT 20/09 A2997 RMK A01 T01970085  RH  048%=      5-min Rain = 0
KCO3 092310Z 06007KT 20/09 A2997 RMK A01 T01970085  RH  048%=      5-min Rain = 0
KCO3 092311Z 06006KT 20/09 A2997 RMK A01 T01960086  RH  049%=      5-min Rain = 0
KCO3 092312Z 05006KT 20/09 A2997 RMK A01 T01960085  RH  049%=      5-min Rain = 0
KCO3 092313Z 05006KT 20/08 A2997 RMK A01 T01960083  RH  048%=      5-min Rain = 0
KCO3 092314Z 05006KT 20/08 A2997 RMK A01 T01960081  RH  047%=      5-min Rain = 0
KCO3 092315Z 05005KT 20/08 A2997 RMK A01 T01960083  RH  048%=      5-min Rain = 0
KCO3 092316Z 05006KT 20/08 A2997 RMK A01 T01960083  RH  048%=      5-min Rain = 0
KCO3 092317Z 07008KT 20/08 A2997 RMK A01 T01960082  RH  048%=      5-min Rain = 0
KCO3 092318Z 05006KT 20/08 A2997 RMK A01 T01960083  RH  048%=      5-min Rain = 0
KCO3 092319Z 05006KT 20/08 A2997 RMK A01 T01960084  RH  048%=      5-min Rain = 0
KCO3 092320Z 05009KT 20/08 A2997 RMK A01 T01950083  RH  048%=      5-min Rain = 0
KCO3 092321Z 06007KT 20/08 A2997 RMK A01 T01950083  RH  048%=      5-min Rain = 0
KCO3 092322Z 06005KT 20/08 A2997 RMK A01 T01950084  RH  049%=      5-min Rain = 0
KCO3 092323Z 07007KT 20/08 A2997 RMK A01 T01950084  RH  049%=      5-min Rain = 0
KCO3 092324Z 06005KT 20/08 A2997 RMK A01 T01950084  RH  049%=      5-min Rain = 0
KCO3 092325Z 06005KT 20/09 A2997 RMK A01 T01950085  RH  049%=      5-min Rain = 0
KCO3 092326Z 05007KT 20/08 A2997 RMK A01 T01950082  RH  048%=      5-min Rain = 0
KCO3 092327Z 06007KT 20/08 A2997 RMK A01 T01950082  RH  048%=      5-min Rain = 0
KCO3 092328Z 06005KT 20/08 A2997 RMK A01 T01950083  RH  048%=      5-min Rain = 0
KCO3 092329Z 06006KT 20/09 A2997 RMK A01 T01950085  RH  049%=      5-min Rain = 0
KCO3 092330Z 07005KT 20/09 A2997 RMK A01 T01950085  RH  049%=      5-min Rain = 0
KCO3 092331Z 07006KT 20/09 A2997 RMK A01 T01950085  RH  049%=      5-min Rain = 0
KCO3 092332Z 08004KT 20/09 A2997 RMK A01 T01950087  RH  050%=      5-min Rain = 0
KCO3 092333Z 08005KT 20/09 A2997 RMK A01 T01950089  RH  050%=      5-min Rain = 0
KCO3 092334Z 09005KT 20/09 A2997 RMK A01 T01950089  RH  050%=      5-min Rain = 0
KCO3 092335Z 09007KT 20/09 A2997 RMK A01 T01950088  RH  050%=      5-min Rain = 0
KCO3 092336Z 07007KT 19/09 A2997 RMK A01 T01940089  RH  051%=      5-min Rain = 0
KCO3 092337Z 08007KT 19/09 A2997 RMK A01 T01940090  RH  051%=      5-min Rain = 0
KCO3 092338Z 10006KT 19/09 A2997 RMK A01 T01940091  RH  051%=      5-min Rain = 0
KCO3 092339Z 10005KT 19/09 A2997 RMK A01 T01940091  RH  052%=      5-min Rain = 0
KCO3 092340Z 10005KT 19/09 A2997 RMK A01 T01930093  RH  052%=      5-min Rain = 0
KCO3 092341Z 10005KT 19/09 A2997 RMK A01 T01930094  RH  053%=      5-min Rain = 0
KCO3 092342Z 10006KT 19/09 A2997 RMK A01 T01920092  RH  052%=      5-min Rain = 0
KCO3 092343Z 10005KT 19/09 A2997 RMK A01 T01920093  RH  053%=      5-min Rain = 0
KCO3 092344Z 10005KT 19/09 A2997 RMK A01 T01920094  RH  053%=      5-min Rain = 0
KCO3 092345Z 10006KT 19/09 A2997 RMK A01 T01920093  RH  052%=      5-min Rain = 0
KCO3 092346Z 09005KT 19/09 A2997 RMK A01 T01920091  RH  052%=      5-min Rain = 0
KCO3 092347Z 10004KT 19/09 A2997 RMK A01 T01920092  RH  052%=      5-min Rain = 0
KCO3 092348Z 09004KT 19/09 A2998 RMK A01 T01920093  RH  052%=      5-min Rain = 0
KCO3 092349Z 09004KT 19/09 A2998 RMK A01 T01920092  RH  052%=      5-min Rain = 0
KCO3 092350Z 10003KT 19/09 A2998 RMK A01 T01920094  RH  053%=      5-min Rain = 0
KCO3 092351Z 10003KT 19/09 A2998 RMK A01 T01920093  RH  053%=      5-min Rain = 0
KCO3 092352Z 11003KT 19/09 A2998 RMK A01 T01920093  RH  052%=      5-min Rain = 0
KCO3 092353Z 11004KT 19/09 A2998 RMK A01 T01920094  RH  053%=      5-min Rain = 0
KCO3 092354Z 11004KT 19/09 A2998 RMK A01 T01920094  RH  053%=      5-min Rain = 0
KCO3 092355Z 10004KT 19/09 A2998 RMK A01 T01930093  RH  052%=      5-min Rain = 0
KCO3 092356Z 10004KT 19/10 A2998 RMK A01 T01930096  RH  053%=      5-min Rain = 0
KCO3 092357Z 10003KT 19/10 A2998 RMK A01 T01930095  RH  053%=      5-min Rain = 0
KCO3 092358Z 09005KT 19/10 A2998 RMK A01 T01930095  RH  053%=      5-min Rain = 0
KCO3 092359Z 10005KT 19/09 A2998 RMK A01 T01930093  RH  052%=      5-min Rain = 0
KCO3 100000Z 10006KT 19/09 A2998 RMK A01 T01940093  RH  052%=      5-min Rain = 0
KCO3 100001Z 10005KT 19/09 A2998 RMK A01 T01940093  RH  052%=      5-min Rain = 0
KCO3 100002Z 10005KT 19/09 A2998 RMK A01 T01940093  RH  052%=      5-min Rain = 0
KCO3 100003Z 09004KT 19/09 A2998 RMK A01 T01940094  RH  052%=      5-min Rain = 0
KCO3 100004Z 10004KT 19/10 A2998 RMK A01 T01940095  RH  053%=      5-min Rain = 0
KCO3 100005Z 09004KT 19/10 A2998 RMK A01 T01940096  RH  053%=      5-min Rain = 0
KCO3 100006Z 10005KT 19/10 A2998 RMK A01 T01940095  RH  052%=      5-min Rain = 0
KCO3 100007Z 11004KT 19/10 A2998 RMK A01 T01940096  RH  053%=      5-min Rain = 0
KCO3 100008Z 11005KT 19/10 A2997 RMK A01 T01930095  RH  053%=      5-min Rain = 0
KCO3 100009Z 10006KT 19/10 A2997 RMK A01 T01930095  RH  053%=      5-min Rain = 0
KCO3 100010Z 10006KT 19/09 A2997 RMK A01 T01930094  RH  053%=      5-min Rain = 0
KCO3 100011Z 10006KT 19/09 A2997 RMK A01 T01920094  RH  053%=      5-min Rain = 0
KCO3 100012Z 10005KT 19/10 A2997 RMK A01 T01920095  RH  053%=      5-min Rain = 0
KCO3 100013Z 10006KT 19/10 A2997 RMK A01 T01910095  RH  054%=      5-min Rain = 0
KCO3 100014Z 10006KT 19/10 A2997 RMK A01 T01910095  RH  054%=      5-min Rain = 0
KCO3 100015Z 10007KT 19/09 A2997 RMK A01 T01910094  RH  053%=      5-min Rain = 0
KCO3 100016Z 10006KT 19/09 A2997 RMK A01 T01910094  RH  054%=      5-min Rain = 0
KCO3 100017Z 10006KT 19/10 A2997 RMK A01 T01900095  RH  054%=      5-min Rain = 0
KCO3 100018Z 10005KT 19/10 A2997 RMK A01 T01900095  RH  054%=      5-min Rain = 0
KCO3 100019Z 10005KT 19/10 A2997 RMK A01 T01900096  RH  054%=      5-min Rain = 0
KCO3 100020Z 09006KT 19/10 A2997 RMK A01 T01900096  RH  054%=      5-min Rain = 0
KCO3 100021Z 09006KT 19/10 A2997 RMK A01 T01900095  RH  054%=      5-min Rain = 0
KCO3 100022Z 09006KT 19/10 A2997 RMK A01 T01900095  RH  054%=      5-min Rain = 0
KCO3 100023Z 10006KT 19/10 A2997 RMK A01 T01890096  RH  054%=      5-min Rain = 0
KCO3 100024Z 08005KT 19/10 A2997 RMK A01 T01890096  RH  055%=      5-min Rain = 0
KCO3 100025Z 09006KT 19/10 A2997 RMK A01 T01890095  RH  054%=      5-min Rain = 0
KCO3 100026Z 09005KT 19/10 A2997 RMK A01 T01890095  RH  054%=      5-min Rain = 0
KCO3 100027Z 09006KT 19/10 A2997 RMK A01 T01890096  RH  055%=      5-min Rain = 0
KCO3 100028Z 09004KT 19/10 A2997 RMK A01 T01890096  RH  055%=      5-min Rain = 0
KCO3 100029Z 08005KT 19/10 A2997 RMK A01 T01890096  RH  055%=      5-min Rain = 0
KCO3 100030Z 08004KT 19/10 A2997 RMK A01 T01890097  RH  055%=      5-min Rain = 0
KCO3 100031Z 08004KT 19/10 A2997 RMK A01 T01880098  RH  056%=      5-min Rain = 0
KCO3 100032Z 07004KT 19/10 A2997 RMK A01 T01880097  RH  055%=      5-min Rain = 0
KCO3 100033Z 07005KT 19/10 A2997 RMK A01 T01880098  RH  056%=      5-min Rain = 0
KCO3 100034Z 08005KT 19/10 A2997 RMK A01 T01870097  RH  056%=      5-min Rain = 0
KCO3 100035Z 08005KT 19/10 A2997 RMK A01 T01870098  RH  056%=      5-min Rain = 0
KCO3 100036Z 06005KT 19/10 A2998 RMK A01 T01870097  RH  056%=      5-min Rain = 0
KCO3 100037Z 08006KT 19/10 A2998 RMK A01 T01870095  RH  055%=      5-min Rain = 0
KCO3 100038Z 08006KT 19/09 A2998 RMK A01 T01870093  RH  054%=      5-min Rain = 0
KCO3 100039Z 08006KT 19/09 A2998 RMK A01 T01870092  RH  054%=      5-min Rain = 0
KCO3 100040Z 07009KT 19/09 A2998 RMK A01 T01870086  RH  052%=      5-min Rain = 0
KCO3 100041Z 07008KT 19/08 A2998 RMK A01 T01870078  RH  049%=      5-min Rain = 0
KCO3 100042Z 07007KT 19/08 A2998 RMK A01 T01870078  RH  049%=      5-min Rain = 0
KCO3 100043Z 07008KT 19/08 A2997 RMK A01 T01870075  RH  048%=      5-min Rain = 0
KCO3 100044Z 06008KT 19/07 A2997 RMK A01 T01870073  RH  047%=      5-min Rain = 0
KCO3 100045Z 06009KT 19/07 A2997 RMK A01 T01870072  RH  047%=      5-min Rain = 0
KCO3 100046Z 05009KT 19/07 A2998 RMK A01 T01870071  RH  047%=      5-min Rain = 0
KCO3 100047Z 06008KT 19/07 A2998 RMK A01 T01870069  RH  046%=      5-min Rain = 0
KCO3 100048Z 06008KT 19/07 A2998 RMK A01 T01870070  RH  046%=      5-min Rain = 0
KCO3 100049Z 06007KT 19/07 A2998 RMK A01 T01870071  RH  047%=      5-min Rain = 0
KCO3 100050Z 05005KT 19/07 A2998 RMK A01 T01870073  RH  047%=      5-min Rain = 0
KCO3 100051Z 04006KT 19/07 A2998 RMK A01 T01860073  RH  048%=      5-min Rain = 0
KCO3 100052Z 06005KT 19/07 A2998 RMK A01 T01860072  RH  047%=      5-min Rain = 0
KCO3 100053Z 05006KT 19/07 A2998 RMK A01 T01860071  RH  047%=      5-min Rain = 0
KCO3 100054Z 05007KT 19/07 A2998 RMK A01 T01860070  RH  047%=      5-min Rain = 0
KCO3 100055Z 05006KT 19/07 A2998 RMK A01 T01860070  RH  047%=      5-min Rain = 0
KCO3 100056Z 05005KT 19/07 A2998 RMK A01 T01850070  RH  047%=      5-min Rain = 0
KCO3 100057Z 04006KT 19/07 A2998 RMK A01 T01850069  RH  047%=      5-min Rain = 0
KCO3 100058Z 04006KT 18/07 A2998 RMK A01 T01840068  RH  047%=      5-min Rain = 0
KCO3 100059Z 04007KT 18/07 A2998 RMK A01 T01840066  RH  046%=      5-min Rain = 0
KCO3 100100Z 04005KT 18/07 A2998 RMK A01 T01830066  RH  046%=      5-min Rain = 0
KCO3 100101Z 03005KT 18/07 A2998 RMK A01 T01830066  RH  046%=      5-min Rain = 0
KCO3 100102Z 03004KT 18/07 A2998 RMK A01 T01820066  RH  046%=      5-min Rain = 0
KCO3 100103Z 03004KT 18/07 A2998 RMK A01 T01810066  RH  047%=      5-min Rain = 0
KCO3 100104Z 03006KT 18/07 A2998 RMK A01 T01810067  RH  047%=      5-min Rain = 0
KCO3 100105Z 03005KT 18/07 A2999 RMK A01 T01800067  RH  048%=      5-min Rain = 0
KCO3 100106Z 03006KT 18/07 A2999 RMK A01 T01790067  RH  048%=      5-min Rain = 0
KCO3 100107Z 03005KT 18/07 A2999 RMK A01 T01790067  RH  048%=      5-min Rain = 0
KCO3 100108Z 02004KT 18/07 A2999 RMK A01 T01790068  RH  048%=      5-min Rain = 0
KCO3 100109Z 03006KT 18/07 A2999 RMK A01 T01780067  RH  048%=      5-min Rain = 0
KCO3 100110Z 03007KT 18/07 A2999 RMK A01 T01770066  RH  048%=      5-min Rain = 0
KCO3 100111Z 03007KT 18/07 A2999 RMK A01 T01770066  RH  048%=      5-min Rain = 0
KCO3 100112Z 02006KT 18/07 A2999 RMK A01 T01760066  RH  048%=      5-min Rain = 0
KCO3 100113Z 02007KT 18/07 A2999 RMK A01 T01760065  RH  048%=      5-min Rain = 0
KCO3 100114Z 02006KT 18/06 A2999 RMK A01 T01750064  RH  048%=      5-min Rain = 0
KCO3 100115Z 02006KT 18/06 A2999 RMK A01 T01750064  RH  048%=      5-min Rain = 0
KCO3 100116Z 03006KT 17/06 A2999 RMK A01 T01740064  RH  048%=      5-min Rain = 0
KCO3 100117Z 02006KT 17/06 A2999 RMK A01 T01730063  RH  049%=      5-min Rain = 0
KCO3 100118Z 02006KT 17/06 A2999 RMK A01 T01720063  RH  049%=      5-min Rain = 0
KCO3 100119Z 02006KT 17/06 A2999 RMK A01 T01710063  RH  049%=      5-min Rain = 0
KCO3 100120Z 02006KT 17/06 A2999 RMK A01 T01710062  RH  049%=      5-min Rain = 0
KCO3 100121Z 02007KT 17/06 A2999 RMK A01 T01700062  RH  049%=      5-min Rain = 0
KCO3 100122Z 02007KT 17/06 A2999 RMK A01 T01700062  RH  049%=      5-min Rain = 0
KCO3 100123Z 02006KT 17/06 A2999 RMK A01 T01690062  RH  049%=      5-min Rain = 0
KCO3 100124Z 02007KT 17/06 A2999 RMK A01 T01680062  RH  049%=      5-min Rain = 0
KCO3 100125Z 02005KT 17/06 A2999 RMK A01 T01680061  RH  049%=      5-min Rain = 0
KCO3 100126Z 03005KT 17/06 A2999 RMK A01 T01680061  RH  049%=      5-min Rain = 0
KCO3 100127Z 02006KT 17/06 A2999 RMK A01 T01670061  RH  049%=      5-min Rain = 0
KCO3 100128Z 02006KT 17/06 A2999 RMK A01 T01660062  RH  050%=      5-min Rain = 0
KCO3 100129Z 02008KT 17/06 A2999 RMK A01 T01650061  RH  050%=      5-min Rain = 0
KCO3 100130Z 02007KT 17/06 A2999 RMK A01 T01650061  RH  050%=      5-min Rain = 0
KCO3 100131Z 02007KT 17/06 A2999 RMK A01 T01650061  RH  050%=      5-min Rain = 0
KCO3 100132Z 02008KT 16/06 A2999 RMK A01 T01640060  RH  050%=      5-min Rain = 0
KCO3 100133Z 02008KT 16/06 A2999 RMK A01 T01640060  RH  050%=      5-min Rain = 0
KCO3 100134Z 02006KT 16/06 A2999 RMK A01 T01640060  RH  050%=      5-min Rain = 0
KCO3 100135Z 02006KT 16/06 A2999 RMK A01 T01640060  RH  050%=      5-min Rain = 0
KCO3 100136Z 02005KT 16/06 A2999 RMK A01 T01630060  RH  050%=      5-min Rain = 0
KCO3 100137Z 02006KT 16/06 A2999 RMK A01 T01620060  RH  051%=      5-min Rain = 0
KCO3 100138Z 02007KT 16/06 A2999 RMK A01 T01620060  RH  051%=      5-min Rain = 0
KCO3 100139Z 02006KT 16/06 A2999 RMK A01 T01620059  RH  051%=      5-min Rain = 0
KCO3 100140Z 01006KT 16/06 A30 RMK A01 T01610060  RH  051%=      5-min Rain = 0
KCO3 100141Z 01006KT 16/06 A30 RMK A01 T01610060  RH  051%=      5-min Rain = 0
KCO3 100142Z 01006KT 16/06 A30 RMK A01 T01600060  RH  052%=      5-min Rain = 0
KCO3 100143Z 01006KT 16/06 A30 RMK A01 T01590061  RH  052%=      5-min Rain = 0
KCO3 100144Z 01006KT 16/06 A30 RMK A01 T01590060  RH  052%=      5-min Rain = 0
KCO3 100145Z 02007KT 16/06 A30 RMK A01 T01580060  RH  052%=      5-min Rain = 0
KCO3 100146Z 01007KT 16/06 A30 RMK A01 T01580060  RH  052%=      5-min Rain = 0
KCO3 100147Z 01006KT 16/06 A30 RMK A01 T01580060  RH  052%=      5-min Rain = 0
KCO3 100148Z 01007KT 16/06 A30 RMK A01 T01570061  RH  053%=      5-min Rain = 0
KCO3 100149Z 02007KT 16/06 A30 RMK A01 T01570059  RH  052%=      5-min Rain = 0
KCO3 100150Z 02007KT 16/06 A30 RMK A01 T01570059  RH  052%=      5-min Rain = 0
KCO3 100151Z 02007KT 16/06 A30 RMK A01 T01570059  RH  052%=      5-min Rain = 0
KCO3 100152Z 02007KT 16/06 A30 RMK A01 T01570060  RH  052%=      5-min Rain = 0
KCO3 100153Z 02008KT 16/06 A30 RMK A01 T01560059  RH  052%=      5-min Rain = 0
KCO3 100154Z 02007KT 16/06 A30 RMK A01 T01560058  RH  052%=      5-min Rain = 0
KCO3 100155Z 02007KT 16/06 A3001 RMK A01 T01560058  RH  052%=      5-min Rain = 0
KCO3 100156Z 02007KT 16/06 A3001 RMK A01 T01560058  RH  052%=      5-min Rain = 0
KCO3 100157Z 02007KT 16/06 A3001 RMK A01 T01560058  RH  052%=      5-min Rain = 0
KCO3 100158Z 02007KT 16/06 A3001 RMK A01 T01560058  RH  052%=      5-min Rain = 0
KCO3 100159Z 02006KT 16/06 A3001 RMK A01 T01560057  RH  052%=      5-min Rain = 0
KCO3 100200Z 03007KT 16/06 A3001 RMK A01 T01560057  RH  052%=      5-min Rain = 0
KCO3 100201Z 03007KT 16/06 A3001 RMK A01 T01560057  RH  052%=      5-min Rain = 0
KCO3 100202Z 03008KT 16/06 A3001 RMK A01 T01550057  RH  052%=      5-min Rain = 0
KCO3 100203Z 03008KT 16/06 A3001 RMK A01 T01550057  RH  052%=      5-min Rain = 0
KCO3 100204Z 02008KT 16/06 A3001 RMK A01 T01550057  RH  052%=      5-min Rain = 0
KCO3 100205Z 03008KT 16/06 A3001 RMK A01 T01550056  RH  052%=      5-min Rain = 0
KCO3 100206Z 02008KT 16/06 A3001 RMK A01 T01550056  RH  052%=      5-min Rain = 0
KCO3 100207Z 02008KT 16/06 A3001 RMK A01 T01550056  RH  052%=      5-min Rain = 0
KCO3 100208Z 02007KT 15/06 A3001 RMK A01 T01540057  RH  052%=      5-min Rain = 0
KCO3 100209Z 02008KT 15/06 A3001 RMK A01 T01540056  RH  052%=      5-min Rain = 0
KCO3 100210Z 02007KT 15/06 A3001 RMK A01 T01530055  RH  052%=      5-min Rain = 0
KCO3 100211Z 02008KT 15/06 A3001 RMK A01 T01530055  RH  052%=      5-min Rain = 0
KCO3 100212Z 02008KT 15/06 A3001 RMK A01 T01530055  RH  052%=      5-min Rain = 0
KCO3 100213Z 02007KT 15/06 A3001 RMK A01 T01530055  RH  052%=      5-min Rain = 0
KCO3 100214Z 02007KT 15/06 A3001 RMK A01 T01530056  RH  052%=      5-min Rain = 0
KCO3 100215Z 03009KT 15/06 A3001 RMK A01 T01530055  RH  052%=      5-min Rain = 0
KCO3 100216Z 03010KT 15/05 A3001 RMK A01 T01530054  RH  052%=      5-min Rain = 0
KCO3 100217Z 03010KT 15/05 A3001 RMK A01 T01540053  RH  051%=      5-min Rain = 0
KCO3 100218Z 03009KT 16/05 A3001 RMK A01 T01550053  RH  051%=      5-min Rain = 0
KCO3 100219Z 03008G13KT 16/05 A3001 RMK A01 T01550053  RH  051%=      5-min Rain = 0
KCO3 100220Z 03008KT 16/05 A3001 RMK A01 T01550054  RH  051%=      5-min Rain = 0
KCO3 100221Z 03009KT 15/05 A3001 RMK A01 T01540054  RH  051%=      5-min Rain = 0
KCO3 100222Z 03010KT 15/05 A3001 RMK A01 T01530053  RH  051%=      5-min Rain = 0
KCO3 100223Z 03006G11KT 15/05 A3002 RMK A01 T01530053  RH  051%=      5-min Rain = 0
KCO3 100224Z 02007KT 15/05 A3002 RMK A01 T01530054  RH  051%=      5-min Rain = 0
KCO3 100225Z 02008KT 15/05 A3002 RMK A01 T01530054  RH  051%=      5-min Rain = 0
KCO3 100226Z 02007KT 15/05 A3002 RMK A01 T01530053  RH  051%=      5-min Rain = 0
KCO3 100227Z 02009KT 15/05 A3002 RMK A01 T01530053  RH  051%=      5-min Rain = 0
KCO3 100228Z 03009KT 15/05 A3002 RMK A01 T01520053  RH  051%=      5-min Rain = 0
KCO3 100229Z 03009KT 15/05 A3002 RMK A01 T01530053  RH  051%=      5-min Rain = 0
KCO3 100230Z 03007KT 15/05 A3002 RMK A01 T01520053  RH  051%=      5-min Rain = 0
KCO3 100231Z 03009KT 15/05 A3002 RMK A01 T01520053  RH  052%=      5-min Rain = 0
KCO3 100232Z 02008KT 15/05 A3002 RMK A01 T01520053  RH  052%=      5-min Rain = 0
KCO3 100233Z 02009KT 15/05 A3002 RMK A01 T01520054  RH  052%=      5-min Rain = 0
KCO3 100234Z 02007KT 15/05 A3003 RMK A01 T01510054  RH  052%=      5-min Rain = 0
KCO3 100235Z 01007KT 15/05 A3003 RMK A01 T01500054  RH  052%=      5-min Rain = 0
KCO3 100236Z 01007KT 15/05 A3003 RMK A01 T01500054  RH  053%=      5-min Rain = 0
KCO3 100237Z 01007KT 15/05 A3003 RMK A01 T01490054  RH  053%=      5-min Rain = 0
KCO3 100238Z 01007KT 15/06 A3003 RMK A01 T01480055  RH  053%=      5-min Rain = 0
KCO3 100239Z 01007KT 15/05 A3004 RMK A01 T01480054  RH  054%=      5-min Rain = 0
KCO3 100240Z 01008KT 15/05 A3004 RMK A01 T01470054  RH  054%=      5-min Rain = 0
KCO3 100241Z 02008KT 15/05 A3004 RMK A01 T01470054  RH  054%=      5-min Rain = 0
KCO3 100242Z 02008KT 15/05 A3004 RMK A01 T01470054  RH  054%=      5-min Rain = 0
KCO3 100243Z 02008KT 15/05 A3004 RMK A01 T01470054  RH  054%=      5-min Rain = 0
KCO3 100244Z 02008KT 15/05 A3004 RMK A01 T01470054  RH  054%=      5-min Rain = 0
KCO3 100245Z 02007KT 15/05 A3004 RMK A01 T01470054  RH  054%=      5-min Rain = 0
KCO3 100246Z 02008KT 15/05 A3004 RMK A01 T01460054  RH  054%=      5-min Rain = 0
KCO3 100247Z 02007KT 15/05 A3004 RMK A01 T01460054  RH  054%=      5-min Rain = 0
KCO3 100248Z 02007KT 15/05 A3003 RMK A01 T01450054  RH  054%=      5-min Rain = 0
KCO3 100249Z 02007KT 15/05 A3003 RMK A01 T01450054  RH  054%=      5-min Rain = 0
KCO3 100250Z 02007KT 14/05 A3003 RMK A01 T01440053  RH  054%=      5-min Rain = 0
KCO3 100251Z 02009KT 14/05 A3003 RMK A01 T01440053  RH  054%=      5-min Rain = 0
KCO3 100252Z 02008G14KT 14/05 A3003 RMK A01 T01440052  RH  054%=      5-min Rain = 0
KCO3 100253Z 02008KT 14/05 A3003 RMK A01 T01440052  RH  054%=      5-min Rain = 0
KCO3 100254Z 02008KT 14/05 A3003 RMK A01 T01440052  RH  054%=      5-min Rain = 0
KCO3 100255Z 02008KT 14/05 A3003 RMK A01 T01440052  RH  054%=      5-min Rain = 0
KCO3 100256Z 02010KT 14/05 A3004 RMK A01 T01430050  RH  054%=      5-min Rain = 0
KCO3 100257Z 02009KT 14/05 A3004 RMK A01 T01440050  RH  053%=      5-min Rain = 0
KCO3 100258Z 02007KT 14/05 A3004 RMK A01 T01440050  RH  053%=      5-min Rain = 0
KCO3 100259Z 02008KT 14/05 A3004 RMK A01 T01430049  RH  053%=      5-min Rain = 0
KCO3 100300Z 02006KT 14/05 A3004 RMK A01 T01430050  RH  053%=      5-min Rain = 0
KCO3 100301Z 02007KT 14/05 A3004 RMK A01 T01430049  RH  053%=      5-min Rain = 0
KCO3 100302Z 02008KT 14/05 A3005 RMK A01 T01420049  RH  053%=      5-min Rain = 0
KCO3 100303Z 02007KT 14/05 A3005 RMK A01 T01420047  RH  053%=      5-min Rain = 0
KCO3 100304Z 02007KT 14/05 A3005 RMK A01 T01420047  RH  053%=      5-min Rain = 0
KCO3 100305Z 02007KT 14/05 A3005 RMK A01 T01420047  RH  053%=      5-min Rain = 0
KCO3 100306Z 02006KT 14/05 A3005 RMK A01 T01420047  RH  053%=      5-min Rain = 0
KCO3 100307Z 02008KT 14/05 A3005 RMK A01 T01420047  RH  053%=      5-min Rain = 0
KCO3 100308Z 02007KT 14/05 A3005 RMK A01 T01410047  RH  053%=      5-min Rain = 0
KCO3 100309Z 02007KT 14/05 A3005 RMK A01 T01410046  RH  053%=      5-min Rain = 0
KCO3 100310Z 02009KT 14/05 A3005 RMK A01 T01410045  RH  053%=      5-min Rain = 0
KCO3 100311Z 02007KT 14/05 A3005 RMK A01 T01410045  RH  053%=      5-min Rain = 0
KCO3 100312Z 02006KT 14/05 A3005 RMK A01 T01400046  RH  053%=      5-min Rain = 0
KCO3 100313Z 02007KT 14/05 A3005 RMK A01 T01400045  RH  053%=      5-min Rain = 0
KCO3 100314Z 02007KT 14/05 A3005 RMK A01 T01390045  RH  053%=      5-min Rain = 0
KCO3 100315Z 02007KT 14/04 A3005 RMK A01 T01390044  RH  053%=      5-min Rain = 0
KCO3 100316Z 02008KT 14/04 A3005 RMK A01 T01390044  RH  053%=      5-min Rain = 0
KCO3 100317Z 02008KT 14/04 A3006 RMK A01 T01390044  RH  053%=      5-min Rain = 0
KCO3 100318Z 01008KT 14/04 A3006 RMK A01 T01390044  RH  053%=      5-min Rain = 0
KCO3 100319Z 01007KT 14/04 A3006 RMK A01 T01390044  RH  053%=      5-min Rain = 0
KCO3 100320Z 02009KT 14/05 A3006 RMK A01 T01380045  RH  053%=      5-min Rain = 0
KCO3 100321Z 01008KT 14/04 A3006 RMK A01 T01370043  RH  053%=      5-min Rain = 0
KCO3 100322Z 01008KT 14/04 A3006 RMK A01 T01370043  RH  053%=      5-min Rain = 0
KCO3 100323Z 01007KT 14/04 A3006 RMK A01 T01380043  RH  053%=      5-min Rain = 0
KCO3 100324Z 02008KT 14/04 A3006 RMK A01 T01380043  RH  053%=      5-min Rain = 0
KCO3 100325Z 01007KT 14/04 A3006 RMK A01 T01370043  RH  053%=      5-min Rain = 0
KCO3 100326Z 02007KT 14/04 A3006 RMK A01 T01370043  RH  053%=      5-min Rain = 0
KCO3 100327Z 02008G13KT 14/04 A3006 RMK A01 T01360043  RH  053%=      5-min Rain = 0
KCO3 100328Z 01009KT 14/04 A3006 RMK A01 T01360042  RH  053%=      5-min Rain = 0
KCO3 100329Z 02009KT 14/04 A3006 RMK A01 T01370041  RH  052%=      5-min Rain = 0
KCO3 100330Z 02007KT 14/04 A3006 RMK A01 T01380042  RH  052%=      5-min Rain = 0
KCO3 100331Z 02006KT 14/04 A3006 RMK A01 T01380042  RH  052%=      5-min Rain = 0
KCO3 100332Z 02008KT 14/04 A3006 RMK A01 T01370041  RH  052%=      5-min Rain = 0
KCO3 100333Z 02008KT 14/04 A3006 RMK A01 T01370040  RH  052%=      5-min Rain = 0
KCO3 100334Z 02008KT 14/04 A3006 RMK A01 T01370040  RH  052%=      5-min Rain = 0
KCO3 100335Z 03008KT 14/04 A3006 RMK A01 T01370040  RH  052%=      5-min Rain = 0
KCO3 100336Z 02008KT 14/04 A3006 RMK A01 T01370040  RH  052%=      5-min Rain = 0
KCO3 100337Z 02008KT 14/04 A3006 RMK A01 T01370040  RH  052%=      5-min Rain = 0
KCO3 100338Z 02008KT 14/04 A3006 RMK A01 T01370039  RH  052%=      5-min Rain = 0
KCO3 100339Z 02007KT 14/04 A3006 RMK A01 T01370040  RH  052%=      5-min Rain = 0
KCO3 100340Z 02007KT 14/04 A3006 RMK A01 T01370040  RH  052%=      5-min Rain = 0
KCO3 100341Z 02007KT 14/04 A3006 RMK A01 T01360040  RH  052%=      5-min Rain = 0
KCO3 100342Z 02008KT 14/04 A3006 RMK A01 T01360040  RH  052%=      5-min Rain = 0
KCO3 100343Z 02008KT 14/04 A3006 RMK A01 T01360039  RH  052%=      5-min Rain = 0
KCO3 100344Z 02008KT 14/04 A3006 RMK A01 T01360039  RH  052%=      5-min Rain = 0
KCO3 100345Z 02007KT 14/04 A3006 RMK A01 T01360039  RH  052%=      5-min Rain = 0
KCO3 100346Z 02008KT 14/04 A3006 RMK A01 T01360038  RH  052%=      5-min Rain = 0
KCO3 100347Z 02008KT 14/04 A3006 RMK A01 T01360039  RH  052%=      5-min Rain = 0
KCO3 100348Z 02009KT 14/04 A3006 RMK A01 T01360038  RH  052%=      5-min Rain = 0
KCO3 100349Z 02009G14KT 14/04 A3006 RMK A01 T01360038  RH  052%=      5-min Rain = 0
KCO3 100350Z 02008KT 14/04 A3006 RMK A01 T01360038  RH  051%=      5-min Rain = 0
KCO3 100351Z 02008KT 14/04 A3006 RMK A01 T01360037  RH  051%=      5-min Rain = 0
KCO3 100352Z 02008KT 14/04 A3006 RMK A01 T01360037  RH  051%=      5-min Rain = 0
KCO3 100353Z 02007KT 14/04 A3006 RMK A01 T01360038  RH  051%=      5-min Rain = 0
KCO3 100354Z 02008KT 14/04 A3006 RMK A01 T01350037  RH  052%=      5-min Rain = 0
KCO3 100355Z 02008KT 14/04 A3007 RMK A01 T01350037  RH  052%=      5-min Rain = 0
KCO3 100356Z 02007KT 13/04 A3007 RMK A01 T01340037  RH  052%=      5-min Rain = 0
KCO3 100357Z 02009KT 13/04 A3006 RMK A01 T01340037  RH  052%=      5-min Rain = 0
KCO3 100358Z 02008KT 13/04 A3006 RMK A01 T01340036  RH  051%=      5-min Rain = 0
KCO3 100359Z 02008KT 13/04 A3007 RMK A01 T01340037  RH  052%=      5-min Rain = 0
KCO3 100400Z 02007KT 13/04 A3007 RMK A01 T01330036  RH  052%=      5-min Rain = 0
KCO3 100401Z 03008KT 13/04 A3007 RMK A01 T01330036  RH  052%=      5-min Rain = 0
KCO3 100402Z 02008KT 13/04 A3007 RMK A01 T01330036  RH  052%=      5-min Rain = 0
KCO3 100403Z 02008KT 13/04 A3007 RMK A01 T01330036  RH  052%=      5-min Rain = 0
KCO3 100404Z 03009KT 13/04 A3007 RMK A01 T01330035  RH  051%=      5-min Rain = 0
KCO3 100405Z 02006KT 13/04 A3007 RMK A01 T01330035  RH  051%=      5-min Rain = 0
KCO3 100406Z 03009G14KT 13/04 A3007 RMK A01 T01330035  RH  051%=      5-min Rain = 0
KCO3 100407Z 03008KT 13/03 A3007 RMK A01 T01330033  RH  051%=      5-min Rain = 0
KCO3 100408Z 03008KT 13/03 A3007 RMK A01 T01330033  RH  051%=      5-min Rain = 0
KCO3 100409Z 03008KT 13/03 A3007 RMK A01 T01340033  RH  051%=      5-min Rain = 0
KCO3 100410Z 03008KT 13/03 A3007 RMK A01 T01340033  RH  051%=      5-min Rain = 0
KCO3 100411Z 03008KT 13/03 A3007 RMK A01 T01330032  RH  050%=      5-min Rain = 0
KCO3 100412Z 03008KT 13/03 A3007 RMK A01 T01330033  RH  051%=      5-min Rain = 0
KCO3 100413Z 03008G13KT 13/03 A3007 RMK A01 T01330033  RH  051%=      5-min Rain = 0
KCO3 100414Z 02010KT 13/03 A3007 RMK A01 T01330032  RH  050%=      5-min Rain = 0
KCO3 100415Z 02008KT 13/03 A3007 RMK A01 T01330032  RH  050%=      5-min Rain = 0
KCO3 100416Z 02008G13KT 13/03 A3007 RMK A01 T01330032  RH  050%=      5-min Rain = 0
KCO3 100417Z 02007KT 13/03 A3007 RMK A01 T01320032  RH  051%=      5-min Rain = 0
KCO3 100418Z 02009KT 13/03 A3007 RMK A01 T01320032  RH  051%=      5-min Rain = 0
KCO3 100419Z 02008KT 13/03 A3007 RMK A01 T01320031  RH  051%=      5-min Rain = 0
KCO3 100420Z 03009KT 13/03 A3007 RMK A01 T01320031  RH  051%=      5-min Rain = 0
KCO3 100421Z 03009KT 13/03 A3007 RMK A01 T01320031  RH  050%=      5-min Rain = 0
KCO3 100422Z 03008KT 13/03 A3007 RMK A01 T01320031  RH  050%=      5-min Rain = 0
KCO3 100423Z 03008KT 13/03 A3007 RMK A01 T01320031  RH  050%=      5-min Rain = 0
KCO3 100424Z 03009KT 13/03 A3007 RMK A01 T01320031  RH  050%=      5-min Rain = 0
KCO3 100425Z 03009KT 13/03 A3007 RMK A01 T01310030  RH  050%=      5-min Rain = 0
KCO3 100426Z 03008KT 13/03 A3007 RMK A01 T01310030  RH  050%=      5-min Rain = 0
KCO3 100427Z 03007KT 13/03 A3007 RMK A01 T01310030  RH  050%=      5-min Rain = 0
KCO3 100428Z 03008G13KT 13/03 A3007 RMK A01 T01310030  RH  050%=      5-min Rain = 0
KCO3 100429Z 03010KT 13/03 A3007 RMK A01 T01320029  RH  050%=      5-min Rain = 0
KCO3 100430Z 03008KT 13/03 A3007 RMK A01 T01320029  RH  050%=      5-min Rain = 0
KCO3 100431Z 03007G12KT 13/03 A3007 RMK A01 T01320030  RH  050%=      5-min Rain = 0
KCO3 100432Z 03009KT 13/03 A3007 RMK A01 T01320029  RH  050%=      5-min Rain = 0
KCO3 100433Z 03008KT 13/03 A3007 RMK A01 T01320029  RH  050%=      5-min Rain = 0
KCO3 100434Z 02008KT 13/03 A3007 RMK A01 T01320029  RH  050%=      5-min Rain = 0
KCO3 100435Z 03008KT 13/03 A3007 RMK A01 T01320030  RH  050%=      5-min Rain = 0
KCO3 100436Z 03009KT 13/03 A3007 RMK A01 T01310029  RH  050%=      5-min Rain = 0
KCO3 100437Z 03008KT 13/03 A3007 RMK A01 T01310029  RH  050%=      5-min Rain = 0
KCO3 100438Z 03007KT 13/03 A3007 RMK A01 T01310029  RH  050%=      5-min Rain = 0
KCO3 100439Z 03007KT 13/03 A3007 RMK A01 T01310030  RH  050%=      5-min Rain = 0
KCO3 100440Z 03009KT 13/03 A3007 RMK A01 T01300029  RH  050%=      5-min Rain = 0
KCO3 100441Z 03008KT 13/03 A3007 RMK A01 T01300029  RH  050%=      5-min Rain = 0
KCO3 100442Z 02007KT 13/03 A3007 RMK A01 T01300029  RH  050%=      5-min Rain = 0
KCO3 100443Z 03008KT 13/03 A3007 RMK A01 T01290029  RH  050%=      5-min Rain = 0
KCO3 100444Z 03009KT 13/03 A3007 RMK A01 T01290028  RH  050%=      5-min Rain = 0
KCO3 100445Z 03010KT 13/03 A3007 RMK A01 T01300028  RH  050%=      5-min Rain = 0
KCO3 100446Z 03008G13KT 13/03 A3007 RMK A01 T01300027  RH  050%=      5-min Rain = 0
KCO3 100447Z 03010KT 13/03 A3007 RMK A01 T01300027  RH  049%=      5-min Rain = 0
KCO3 100448Z 03009KT 13/03 A3007 RMK A01 T01310026  RH  049%=      5-min Rain = 0
KCO3 100449Z 04009KT 13/03 A3007 RMK A01 T01310027  RH  049%=      5-min Rain = 0
KCO3 100450Z 03011KT 13/03 A3007 RMK A01 T01310026  RH  049%=      5-min Rain = 0
KCO3 100451Z 03009KT 13/03 A3007 RMK A01 T01310025  RH  049%=      5-min Rain = 0
KCO3 100452Z 03008KT 13/03 A3007 RMK A01 T01310026  RH  049%=      5-min Rain = 0
KCO3 100453Z 03009KT 13/03 A3007 RMK A01 T01310025  RH  049%=      5-min Rain = 0
KCO3 100454Z 04010KT 13/02 A3007 RMK A01 T01310024  RH  048%=      5-min Rain = 0
KCO3 100455Z 04008KT 13/02 A3007 RMK A01 T01310024  RH  048%=      5-min Rain = 0
KCO3 100456Z 03008KT 13/02 A3007 RMK A01 T01310024  RH  048%=      5-min Rain = 0
KCO3 100457Z 04008KT 13/02 A3007 RMK A01 T01310024  RH  048%=      5-min Rain = 0
KCO3 100458Z 03008G13KT 13/02 A3007 RMK A01 T01310024  RH  048%=      5-min Rain = 0
KCO3 100459Z 03009G14KT 13/02 A3007 RMK A01 T01300024  RH  048%=      5-min Rain = 0

Page generated in 0.1949 seconds.